Time,TemperatureF,DewpointF,PressureIn,WindDirection,WindDirectionDegrees,WindSpeedMPH,WindSpeedGustMPH,Humidity,HourlyPrecipIn,Conditions,Clouds,dailyrainin,SoftwareType,DateUTC
2013-11-15 00:00:00,54.1,49.4,30.24,NNW,338,0.0,0.0,84,0.00,CLR,CLR,0.00,WeatherDisplay:10.37,2013-11-15 05:00:00,
2013-11-15 00:01:00,54.1,49.4,30.24,NNW,338,0.0,0.0,84,0.00,CLR,,0.00,WeatherDisplay:10.37,2013-11-15 05:01:00,
2013-11-15 00:06:00,54.0,49.2,30.24,NNW,338,0.0,0.0,84,0.00,CLR,,0.00,WeatherDisplay:10.37,2013-11-15 05:06:00,
2013-11-15 00:11:00,54.0,49.2,30.24,NNW,338,0.0,0.0,84,0.00,CLR,,0.00,WeatherDisplay:10.37,2013-11-15 05:11:00,
2013-11-15 00:12:00,54.0,49.2,30.24,NNW,338,1.4,0.0,84,0.00,CLR,,0.00,WeatherDisplay:10.37,2013-11-15 05:12:00,
2013-11-15 00:16:00,53.8,49.1,30.24,NNW,338,0.0,0.0,84,0.00,CLR,,0.00,WeatherDisplay:10.37,2013-11-15 05:16:00,
2013-11-15 00:17:00,53.8,49.1,30.24,NNW,338,1.2,0.0,84,0.00,CLR,,0.00,WeatherDisplay:10.37,2013-11-15 05:17:00,
2013-11-15 00:21:00,54.0,49.2,30.24,North,0,2.4,2.4,84,0.00,CLR,,0.00,WeatherDisplay:10.37,2013-11-15 05:21:00,
2013-11-15 00:22:00,54.0,49.6,30.24,North,0,2.3,2.3,85,0.00,CLR,,0.00,WeatherDisplay:10.37,2013-11-15 05:22:00,
2013-11-15 00:26:00,54.0,49.6,30.24,NNW,338,1.6,1.6,85,0.00,CLR,,0.00,WeatherDisplay:10.37,2013-11-15 05:26:00,
2013-11-15 00:27:00,54.0,49.6,30.24,North,0,2.0,2.0,85,0.00,CLR,,0.00,WeatherDisplay:10.37,2013-11-15 05:27:00,
2013-11-15 00:31:00,54.0,49.9,30.21,North,0,1.2,1.2,86,0.00,CLR,,0.00,WeatherDisplay:10.37,2013-11-15 05:31:00,
2013-11-15 00:32:00,54.1,50.0,30.21,North,0,2.4,2.4,86,0.00,CLR,,0.00,WeatherDisplay:10.37,2013-11-15 05:32:00,
2013-11-15 00:33:00,54.1,50.0,30.21,North,0,2.3,2.3,86,0.00,CLR,,0.00,WeatherDisplay:10.37,2013-11-15 05:33:00,
2013-11-15 00:36:00,54.1,50.0,30.21,North,0,2.3,2.3,86,0.00,CLR,,0.00,WeatherDisplay:10.37,2013-11-15 05:36:00,
2013-11-15 00:37:00,54.1,50.0,30.21,North,0,2.3,2.3,86,0.00,CLR,,0.00,WeatherDisplay:10.37,2013-11-15 05:37:00,
2013-11-15 00:38:00,54.1,50.0,30.21,NNW,338,2.3,2.3,86,0.00,CLR,,0.00,WeatherDisplay:10.37,2013-11-15 05:38:00,
2013-11-15 00:39:00,54.1,50.0,30.21,NNW,338,1.2,1.4,86,0.00,CLR,,0.00,WeatherDisplay:10.37,2013-11-15 05:39:00,
2013-11-15 00:42:00,54.1,50.0,30.21,NNW,338,1.2,2.0,86,0.00,CLR,,0.00,WeatherDisplay:10.37,2013-11-15 05:42:00,
2013-11-15 00:43:00,54.1,50.0,30.21,North,0,2.3,2.3,86,0.00,CLR,,0.00,WeatherDisplay:10.37,2013-11-15 05:43:00,
2013-11-15 00:44:00,54.1,50.0,30.21,North,0,2.3,2.3,86,0.00,CLR,,0.00,WeatherDisplay:10.37,2013-11-15 05:44:00,
2013-11-15 00:47:00,54.3,50.5,30.21,NNW,338,2.3,2.6,87,0.00,CLR,,0.00,WeatherDisplay:10.37,2013-11-15 05:47:00,
2013-11-15 00:48:00,54.1,50.4,30.21,NNW,338,2.0,2.0,87,0.00,CLR,,0.00,WeatherDisplay:10.37,2013-11-15 05:48:00,
2013-11-15 00:50:00,54.1,50.4,30.21,NNE,22,2.3,2.3,87,0.00,CLR,,0.00,WeatherDisplay:10.37,2013-11-15 05:50:00,
2013-11-15 00:52:00,54.1,50.4,30.21,NNE,22,1.4,1.4,87,0.00,CLR,,0.00,WeatherDisplay:10.37,2013-11-15 05:52:00,
2013-11-15 00:53:00,54.1,50.4,30.21,North,0,1.2,1.2,87,0.00,CLR,,0.00,WeatherDisplay:10.37,2013-11-15 05:53:00,
2013-11-15 00:55:00,54.1,50.4,30.21,North,0,1.2,1.2,87,0.00,CLR,,0.00,WeatherDisplay:10.37,2013-11-15 05:55:00,
2013-11-15 00:57:00,54.1,50.4,30.21,North,0,1.2,0.0,87,0.00,CLR,,0.00,WeatherDisplay:10.37,2013-11-15 05:57:00,
2013-11-15 00:58:00,54.1,50.4,30.21,North,0,1.2,0.0,87,0.00,CLR,,0.00,WeatherDisplay:10.37,2013-11-15 05:58:00,
2013-11-15 00:59:00,54.1,50.0,30.18,NNW,338,0.9,0.0,86,0.00,CLR,,0.00,WeatherDisplay:10.37,2013-11-15 05:59:00,
2013-11-15 01:00:00,54.1,50.0,30.18,North,0,1.4,1.4,86,0.00,CLR,,0.00,WeatherDisplay:10.37,2013-11-15 06:00:00,
2013-11-15 01:03:00,54.1,50.0,30.18,NNW,338,1.2,1.2,86,0.00,CLR,,0.00,WeatherDisplay:10.37,2013-11-15 06:03:00,
2013-11-15 01:04:00,54.1,50.0,30.18,NW,315,2.3,2.3,86,0.00,CLR,,0.00,WeatherDisplay:10.37,2013-11-15 06:04:00,
2013-11-15 01:06:00,54.1,50.0,30.18,NW,315,2.3,2.3,86,0.00,CLR,,0.00,WeatherDisplay:10.37,2013-11-15 06:06:00,
2013-11-15 01:08:00,54.0,49.9,30.18,NW,315,0.0,0.0,86,0.00,CLR,,0.00,WeatherDisplay:10.37,2013-11-15 06:08:00,
2013-11-15 01:10:00,54.0,49.9,30.18,NW,315,0.0,0.0,86,0.00,CLR,,0.00,WeatherDisplay:10.37,2013-11-15 06:10:00,
2013-11-15 01:12:00,54.0,49.9,30.18,NW,315,0.0,0.0,86,0.00,CLR,,0.00,WeatherDisplay:10.37,2013-11-15 06:12:00,
2013-11-15 01:13:00,54.0,49.9,30.18,NW,315,0.0,0.0,86,0.00,CLR,,0.00,WeatherDisplay:10.37,2013-11-15 06:13:00,
2013-11-15 01:14:00,54.0,49.9,30.21,NW,315,0.0,0.0,86,0.00,CLR,,0.00,WeatherDisplay:10.37,2013-11-15 06:14:00,
2013-11-15 01:15:00,54.0,49.9,30.21,NW,315,0.0,0.0,86,0.00,CLR,,0.00,WeatherDisplay:10.37,2013-11-15 06:15:00,
2013-11-15 01:17:00,54.0,49.9,30.21,NW,315,0.0,0.0,86,0.00,CLR,,0.00,WeatherDisplay:10.37,2013-11-15 06:17:00,
2013-11-15 01:18:00,54.0,49.9,30.21,NW,315,0.0,0.0,86,0.00,CLR,,0.00,WeatherDisplay:10.37,2013-11-15 06:18:00,
2013-11-15 01:19:00,53.8,49.7,30.21,NW,315,0.0,0.0,86,0.00,CLR,,0.00,WeatherDisplay:10.37,2013-11-15 06:19:00,
2013-11-15 01:20:00,54.0,49.9,30.21,NW,315,0.0,0.0,86,0.00,CLR,,0.00,WeatherDisplay:10.37,2013-11-15 06:20:00,
2013-11-15 01:22:00,54.0,49.9,30.21,NW,315,1.4,1.4,86,0.00,CLR,,0.00,WeatherDisplay:10.37,2013-11-15 06:22:00,
2013-11-15 01:23:00,54.0,49.9,30.21,NW,315,0.0,0.0,86,0.00,CLR,,0.00,WeatherDisplay:10.37,2013-11-15 06:23:00,
2013-11-15 01:24:00,54.1,50.0,30.21,NW,315,0.0,0.0,86,0.00,CLR,,0.00,WeatherDisplay:10.37,2013-11-15 06:24:00,
2013-11-15 01:25:00,54.1,50.4,30.21,NW,315,0.0,0.0,87,0.00,CLR,,0.00,WeatherDisplay:10.37,2013-11-15 06:25:00,
2013-11-15 01:27:00,54.1,50.4,30.21,NW,315,1.4,1.4,87,0.00,CLR,,0.00,WeatherDisplay:10.37,2013-11-15 06:27:00,
2013-11-15 01:28:00,54.1,50.4,30.21,NW,315,1.2,1.2,87,0.00,CLR,,0.00,WeatherDisplay:10.37,2013-11-15 06:28:00,
2013-11-15 01:29:00,54.1,50.4,30.21,NW,315,0.0,0.9,87,0.00,CLR,,0.00,WeatherDisplay:10.37,2013-11-15 06:29:00,
2013-11-15 01:30:00,54.1,50.4,30.21,NW,315,0.0,0.0,87,0.00,CLR,,0.00,WeatherDisplay:10.37,2013-11-15 06:30:00,
2013-11-15 01:32:00,54.1,50.4,30.21,NW,315,0.0,0.0,87,0.00,CLR,,0.00,WeatherDisplay:10.37,2013-11-15 06:32:00,
2013-11-15 01:33:00,54.1,50.4,30.21,NW,315,0.0,0.0,87,0.00,CLR,,0.00,WeatherDisplay:10.37,2013-11-15 06:33:00,
2013-11-15 01:34:00,54.1,50.4,30.21,NW,315,0.0,0.0,87,0.00,CLR,,0.00,WeatherDisplay:10.37,2013-11-15 06:34:00,
2013-11-15 01:35:00,54.1,50.4,30.21,NW,315,0.0,0.0,87,0.00,CLR,,0.00,WeatherDisplay:10.37,2013-11-15 06:35:00,
2013-11-15 01:37:00,54.1,50.4,30.21,NW,315,0.0,0.0,87,0.00,CLR,,0.00,WeatherDisplay:10.37,2013-11-15 06:37:00,
2013-11-15 01:38:00,54.1,50.4,30.21,NW,315,0.0,0.0,87,0.00,CLR,,0.00,WeatherDisplay:10.37,2013-11-15 06:38:00,
2013-11-15 01:39:00,54.1,50.4,30.21,NW,315,0.0,0.0,87,0.00,CLR,,0.00,WeatherDisplay:10.37,2013-11-15 06:39:00,
2013-11-15 01:40:00,54.0,50.2,30.21,NW,315,0.0,0.0,87,0.00,CLR,,0.00,WeatherDisplay:10.37,2013-11-15 06:40:00,
2013-11-15 01:41:00,54.0,50.2,30.21,NW,315,0.0,0.0,87,0.00,CLR,,0.00,WeatherDisplay:10.37,2013-11-15 06:41:00,
2013-11-15 01:43:00,54.0,50.2,30.18,NW,315,0.0,0.0,87,0.00,CLR,,0.00,WeatherDisplay:10.37,2013-11-15 06:43:00,
2013-11-15 01:44:00,54.0,50.2,30.18,NW,315,0.0,0.0,87,0.00,CLR,,0.00,WeatherDisplay:10.37,2013-11-15 06:44:00,
2013-11-15 01:45:00,54.0,50.2,30.18,NW,315,0.0,0.0,87,0.00,CLR,,0.00,WeatherDisplay:10.37,2013-11-15 06:45:00,
2013-11-15 01:47:00,53.8,49.7,30.18,NW,315,0.0,0.0,86,0.00,CLR,,0.00,WeatherDisplay:10.37,2013-11-15 06:47:00,
2013-11-15 01:49:00,53.8,49.7,30.18,NW,315,2.3,0.0,86,0.00,CLR,,0.00,WeatherDisplay:10.37,2013-11-15 06:49:00,
2013-11-15 01:50:00,53.8,49.7,30.18,NW,315,0.0,1.4,86,0.00,CLR,,0.00,WeatherDisplay:10.37,2013-11-15 06:50:00,
2013-11-15 01:51:00,53.8,49.7,30.18,NW,315,0.0,0.0,86,0.00,CLR,,0.00,WeatherDisplay:10.37,2013-11-15 06:51:00,
2013-11-15 01:52:00,53.8,49.7,30.18,NW,315,0.0,0.0,86,0.00,CLR,,0.00,WeatherDisplay:10.37,2013-11-15 06:52:00,
2013-11-15 01:54:00,53.8,49.7,30.18,NW,315,0.0,0.0,86,0.00,CLR,,0.00,WeatherDisplay:10.37,2013-11-15 06:54:00,
2013-11-15 01:55:00,53.8,49.7,30.18,NW,315,0.0,0.0,86,0.00,CLR,,0.00,WeatherDisplay:10.37,2013-11-15 06:55:00,
2013-11-15 01:56:00,53.8,49.7,30.18,NW,315,0.0,0.0,86,0.00,CLR,,0.00,WeatherDisplay:10.37,2013-11-15 06:56:00,
2013-11-15 01:57:00,53.6,49.5,30.18,NW,315,2.6,0.0,86,0.00,CLR,,0.00,WeatherDisplay:10.37,2013-11-15 06:57:00,
2013-11-15 01:59:00,53.8,49.7,30.21,NW,315,1.4,1.4,86,0.00,CLR,,0.00,WeatherDisplay:10.37,2013-11-15 06:59:00,
2013-11-15 02:00:00,53.8,50.0,30.21,NW,315,0.0,0.0,87,0.00,CLR,,0.00,WeatherDisplay:10.37,2013-11-15 07:00:00,
2013-11-15 02:01:00,53.8,50.0,30.21,NW,315,1.4,0.0,87,0.00,CLR,,0.00,WeatherDisplay:10.37,2013-11-15 07:01:00,
2013-11-15 02:02:00,53.8,50.0,30.21,NW,315,0.0,1.2,87,0.00,CLR,,0.00,WeatherDisplay:10.37,2013-11-15 07:02:00,
2013-11-15 02:04:00,53.8,50.0,30.21,NW,315,0.0,0.0,87,0.00,CLR,,0.00,WeatherDisplay:10.37,2013-11-15 07:04:00,
2013-11-15 02:05:00,53.8,50.0,30.21,NW,315,1.6,0.0,87,0.00,CLR,,0.00,WeatherDisplay:10.37,2013-11-15 07:05:00,
2013-11-15 02:06:00,53.8,50.0,30.21,NW,315,1.2,0.0,87,0.00,CLR,,0.00,WeatherDisplay:10.37,2013-11-15 07:06:00,
2013-11-15 02:08:00,53.8,50.0,30.21,NW,315,1.2,1.2,87,0.00,CLR,,0.00,WeatherDisplay:10.37,2013-11-15 07:08:00,
2013-11-15 02:09:00,53.8,50.0,30.21,NW,315,1.2,1.2,87,0.00,CLR,,0.00,WeatherDisplay:10.37,2013-11-15 07:09:00,
2013-11-15 02:10:00,53.8,50.0,30.21,NW,315,1.2,1.2,87,0.00,CLR,,0.00,WeatherDisplay:10.37,2013-11-15 07:10:00,
2013-11-15 02:11:00,53.8,50.0,30.21,NW,315,0.0,1.2,87,0.00,CLR,,0.00,WeatherDisplay:10.37,2013-11-15 07:11:00,
2013-11-15 02:13:00,53.8,50.0,30.21,NW,315,0.0,0.0,87,0.00,CLR,,0.00,WeatherDisplay:10.37,2013-11-15 07:13:00,
2013-11-15 02:14:00,53.8,50.0,30.21,NNW,338,1.2,1.4,87,0.00,CLR,,0.00,WeatherDisplay:10.37,2013-11-15 07:14:00,
2013-11-15 02:15:00,54.0,50.5,30.21,NNW,338,0.0,1.4,88,0.00,CLR,,0.00,WeatherDisplay:10.37,2013-11-15 07:15:00,
2013-11-15 02:16:00,53.8,50.3,30.21,NNW,338,0.0,0.0,88,0.00,CLR,,0.00,WeatherDisplay:10.37,2013-11-15 07:16:00,
2013-11-15 02:18:00,54.0,50.5,30.21,NNW,338,0.0,0.0,88,0.00,CLR,,0.00,WeatherDisplay:10.37,2013-11-15 07:18:00,
2013-11-15 02:19:00,53.8,50.3,30.21,NNW,338,0.0,0.0,88,0.00,CLR,,0.00,WeatherDisplay:10.37,2013-11-15 07:19:00,
2013-11-15 02:20:00,53.8,50.3,30.21,NNW,338,0.0,0.0,88,0.00,CLR,,0.00,WeatherDisplay:10.37,2013-11-15 07:20:00,
2013-11-15 02:21:00,53.8,50.3,30.21,NNW,338,0.0,0.0,88,0.00,CLR,,0.00,WeatherDisplay:10.37,2013-11-15 07:21:00,
2013-11-15 02:22:00,53.8,50.3,30.21,NNW,338,0.0,0.0,88,0.00,CLR,,0.00,WeatherDisplay:10.37,2013-11-15 07:22:00,
2013-11-15 02:23:00,53.8,50.3,30.21,NNW,338,0.0,0.0,88,0.00,CLR,,0.00,WeatherDisplay:10.37,2013-11-15 07:23:00,
2013-11-15 02:24:00,53.8,50.3,30.21,NNW,338,0.0,0.0,88,0.00,CLR,,0.00,WeatherDisplay:10.37,2013-11-15 07:24:00,
2013-11-15 02:25:00,53.8,50.3,30.21,NNW,338,0.0,0.0,88,0.00,CLR,,0.00,WeatherDisplay:10.37,2013-11-15 07:25:00,
2013-11-15 02:26:00,53.8,50.3,30.21,NNW,338,0.0,0.0,88,0.00,CLR,,0.00,WeatherDisplay:10.37,2013-11-15 07:26:00,
2013-11-15 02:27:00,53.8,50.3,30.21,NNW,338,0.0,0.0,88,0.00,CLR,,0.00,WeatherDisplay:10.37,2013-11-15 07:27:00,
2013-11-15 02:28:00,53.8,50.3,30.21,NNW,338,0.0,0.0,88,0.00,CLR,,0.00,WeatherDisplay:10.37,2013-11-15 07:28:00,
2013-11-15 02:29:00,54.0,50.5,30.21,NNW,338,0.0,0.0,88,0.00,CLR,,0.00,WeatherDisplay:10.37,2013-11-15 07:29:00,
2013-11-15 02:31:00,54.0,50.5,30.21,NNW,338,0.0,0.0,88,0.00,CLR,,0.00,WeatherDisplay:10.37,2013-11-15 07:31:00,
2013-11-15 02:32:00,54.0,50.8,30.21,North,0,0.0,0.0,89,0.00,CLR,,0.00,WeatherDisplay:10.37,2013-11-15 07:32:00,
2013-11-15 02:33:00,54.1,51.0,30.21,NNW,338,0.0,0.0,89,0.00,CLR,,0.00,WeatherDisplay:10.37,2013-11-15 07:33:00,
2013-11-15 02:34:00,54.1,51.0,30.21,NNW,338,2.2,2.2,89,0.00,CLR,,0.00,WeatherDisplay:10.37,2013-11-15 07:34:00,
2013-11-15 02:36:00,54.1,51.0,30.21,NNW,338,0.0,1.2,89,0.00,CLR,,0.00,WeatherDisplay:10.37,2013-11-15 07:36:00,
2013-11-15 02:37:00,54.3,51.1,30.21,North,0,1.2,0.0,89,0.00,CLR,,0.00,WeatherDisplay:10.37,2013-11-15 07:37:00,
2013-11-15 02:39:00,54.3,51.4,30.21,North,0,0.0,0.0,90,0.00,CLR,,0.00,WeatherDisplay:10.37,2013-11-15 07:39:00,
2013-11-15 02:40:00,54.3,51.4,30.21,North,0,0.0,0.0,90,0.00,CLR,,0.00,WeatherDisplay:10.37,2013-11-15 07:40:00,
2013-11-15 02:41:00,54.3,51.4,30.21,North,0,0.0,0.0,90,0.00,CLR,,0.00,WeatherDisplay:10.37,2013-11-15 07:41:00,
2013-11-15 02:42:00,54.3,51.4,30.21,North,0,0.0,0.0,90,0.00,CLR,,0.00,WeatherDisplay:10.37,2013-11-15 07:42:00,
2013-11-15 02:45:00,54.5,51.6,30.21,North,0,1.6,0.0,90,0.00,CLR,,0.00,WeatherDisplay:10.37,2013-11-15 07:45:00,
2013-11-15 02:46:00,54.5,51.6,30.21,North,0,1.2,0.0,90,0.00,CLR,,0.00,WeatherDisplay:10.37,2013-11-15 07:46:00,
2013-11-15 02:47:00,54.5,51.6,30.21,North,0,0.0,0.0,90,0.00,CLR,,0.00,WeatherDisplay:10.37,2013-11-15 07:47:00,
2013-11-15 02:48:00,54.5,51.6,30.21,North,0,0.0,0.0,90,0.00,CLR,,0.00,WeatherDisplay:10.37,2013-11-15 07:48:00,
2013-11-15 02:50:00,54.5,51.6,30.21,North,0,2.3,2.3,90,0.00,CLR,,0.00,WeatherDisplay:10.37,2013-11-15 07:50:00,
2013-11-15 02:52:00,54.5,51.6,30.21,North,0,2.2,2.2,90,0.00,CLR,,0.00,WeatherDisplay:10.37,2013-11-15 07:52:00,
2013-11-15 02:53:00,54.7,51.8,30.21,North,0,1.2,1.6,90,0.00,CLR,,0.00,WeatherDisplay:10.37,2013-11-15 07:53:00,
2013-11-15 02:55:00,54.7,51.8,30.21,North,0,1.2,1.2,90,0.00,CLR,,0.00,WeatherDisplay:10.37,2013-11-15 07:55:00,
2013-11-15 02:56:00,54.7,52.1,30.21,North,0,2.0,2.0,91,0.00,CLR,,0.00,WeatherDisplay:10.37,2013-11-15 07:56:00,
2013-11-15 02:57:00,54.7,52.1,30.21,North,0,1.2,1.2,91,0.00,CLR,,0.00,WeatherDisplay:10.37,2013-11-15 07:57:00,
2013-11-15 02:58:00,54.7,52.1,30.21,North,0,0.0,1.2,91,0.00,CLR,,0.00,WeatherDisplay:10.37,2013-11-15 07:58:00,
2013-11-15 03:00:00,54.7,52.1,30.21,North,0,1.6,1.6,91,0.00,CLR,,0.00,WeatherDisplay:10.37,2013-11-15 08:00:00,
2013-11-15 03:02:00,54.9,52.3,30.21,North,0,1.2,1.2,91,0.00,CLR,,0.00,WeatherDisplay:10.37,2013-11-15 08:02:00,
2013-11-15 03:03:00,54.9,52.3,30.21,North,0,2.3,0.0,91,0.00,CLR,,0.00,WeatherDisplay:10.37,2013-11-15 08:03:00,
2013-11-15 03:04:00,54.9,52.3,30.21,North,0,2.3,0.0,91,0.00,CLR,,0.00,WeatherDisplay:10.37,2013-11-15 08:04:00,
2013-11-15 03:05:00,54.9,52.3,30.21,North,0,2.3,2.3,91,0.00,CLR,,0.00,WeatherDisplay:10.37,2013-11-15 08:05:00,
2013-11-15 03:07:00,55.0,52.5,30.21,North,0,2.6,2.9,91,0.00,CLR,,0.00,WeatherDisplay:10.37,2013-11-15 08:07:00,
2013-11-15 03:08:00,55.0,52.5,30.21,NNE,22,3.6,3.6,91,0.00,CLR,,0.00,WeatherDisplay:10.37,2013-11-15 08:08:00,
2013-11-15 03:09:00,55.0,52.8,30.21,North,0,3.5,3.5,92,0.00,CLR,,0.00,WeatherDisplay:10.37,2013-11-15 08:09:00,
2013-11-15 03:11:00,55.0,52.8,30.21,NNW,338,3.8,3.8,92,0.00,CLR,,0.00,WeatherDisplay:10.37,2013-11-15 08:11:00,
2013-11-15 03:12:00,55.0,52.8,30.21,North,0,2.6,2.9,92,0.00,CLR,,0.00,WeatherDisplay:10.37,2013-11-15 08:12:00,
2013-11-15 03:13:00,55.0,52.8,30.21,North,0,2.4,2.6,92,0.00,CLR,,0.00,WeatherDisplay:10.37,2013-11-15 08:13:00,
2013-11-15 03:14:00,55.2,52.9,30.21,North,0,4.0,4.0,92,0.00,CLR,,0.00,WeatherDisplay:10.37,2013-11-15 08:14:00,
2013-11-15 03:15:00,55.0,53.1,30.21,North,0,2.3,2.9,93,0.00,CLR,,0.00,WeatherDisplay:10.37,2013-11-15 08:15:00,
2013-11-15 03:16:00,55.2,53.2,30.21,North,0,3.5,3.5,93,0.00,CLR,,0.00,WeatherDisplay:10.37,2013-11-15 08:16:00,
2013-11-15 03:18:00,55.2,53.2,30.21,North,0,2.4,2.4,93,0.00,CLR,,0.00,WeatherDisplay:10.37,2013-11-15 08:18:00,
2013-11-15 03:19:00,55.2,53.2,30.21,North,0,2.0,2.0,93,0.00,CLR,,0.00,WeatherDisplay:10.37,2013-11-15 08:19:00,
2013-11-15 03:20:00,55.2,53.2,30.21,NNW,338,2.9,2.9,93,0.00,CLR,,0.00,WeatherDisplay:10.37,2013-11-15 08:20:00,
2013-11-15 03:21:00,55.2,53.2,30.21,North,0,3.1,3.1,93,0.00,CLR,,0.00,WeatherDisplay:10.37,2013-11-15 08:21:00,
2013-11-15 03:23:00,55.2,53.2,30.21,NNE,22,2.6,2.6,93,0.00,CLR,,0.00,WeatherDisplay:10.37,2013-11-15 08:23:00,
2013-11-15 03:24:00,55.2,53.2,30.21,NNE,22,3.5,3.5,93,0.00,CLR,,0.00,WeatherDisplay:10.37,2013-11-15 08:24:00,
2013-11-15 03:25:00,55.2,53.2,30.21,NNE,22,1.2,1.2,93,0.00,CLR,,0.00,WeatherDisplay:10.37,2013-11-15 08:25:00,
2013-11-15 03:26:00,55.4,53.1,30.21,North,0,3.1,3.1,92,0.00,CLR,,0.00,WeatherDisplay:10.37,2013-11-15 08:26:00,
2013-11-15 03:28:00,55.4,53.4,30.21,North,0,3.1,3.1,93,0.00,CLR,,0.00,WeatherDisplay:10.37,2013-11-15 08:28:00,
2013-11-15 03:29:00,55.4,53.4,30.18,North,0,3.1,3.1,93,0.00,CLR,,0.00,WeatherDisplay:10.37,2013-11-15 08:29:00,
2013-11-15 03:30:00,55.4,53.4,30.18,NNW,338,3.5,3.5,93,0.00,CLR,,0.00,WeatherDisplay:10.37,2013-11-15 08:30:00,
2013-11-15 03:31:00,55.4,53.4,30.18,North,0,3.5,3.5,93,0.00,CLR,,0.00,WeatherDisplay:10.37,2013-11-15 08:31:00,
2013-11-15 03:33:00,55.6,53.6,30.18,North,0,3.5,3.6,93,0.00,CLR,,0.00,WeatherDisplay:10.37,2013-11-15 08:33:00,
2013-11-15 03:35:00,55.6,53.6,30.18,North,0,3.5,3.6,93,0.00,CLR,,0.00,WeatherDisplay:10.37,2013-11-15 08:35:00,
2013-11-15 03:36:00,55.6,53.6,30.18,North,0,3.5,3.5,93,0.00,CLR,,0.00,WeatherDisplay:10.37,2013-11-15 08:36:00,
2013-11-15 03:38:00,55.6,53.6,30.18,North,0,2.4,2.4,93,0.00,CLR,,0.00,WeatherDisplay:10.37,2013-11-15 08:38:00,
2013-11-15 03:40:00,55.6,53.6,30.18,NNE,22,0.0,0.0,93,0.00,CLR,,0.00,WeatherDisplay:10.37,2013-11-15 08:40:00,
2013-11-15 03:41:00,55.6,53.6,30.18,NNW,338,2.6,2.6,93,0.00,CLR,,0.00,WeatherDisplay:10.37,2013-11-15 08:41:00,
2013-11-15 03:43:00,55.6,53.6,30.18,North,0,3.5,3.5,93,0.00,CLR,,0.00,WeatherDisplay:10.37,2013-11-15 08:43:00,
2013-11-15 03:45:00,55.6,53.6,30.18,North,0,2.3,2.3,93,0.00,CLR,,0.00,WeatherDisplay:10.37,2013-11-15 08:45:00,
2013-11-15 03:46:00,55.6,53.6,30.18,NE,45,1.2,2.0,93,0.00,CLR,,0.00,WeatherDisplay:10.37,2013-11-15 08:46:00,
2013-11-15 03:47:00,55.6,53.6,30.18,NNE,22,3.1,3.1,93,0.00,CLR,,0.00,WeatherDisplay:10.37,2013-11-15 08:47:00,
2013-11-15 03:49:00,55.8,53.8,30.18,NE,45,2.6,3.1,93,0.00,CLR,,0.00,WeatherDisplay:10.37,2013-11-15 08:49:00,
2013-11-15 03:50:00,55.8,53.8,30.18,NNW,338,3.5,3.5,93,0.00,CLR,,0.00,WeatherDisplay:10.37,2013-11-15 08:50:00,
2013-11-15 03:51:00,55.8,54.1,30.18,NNE,22,2.9,2.9,94,0.00,CLR,,0.00,WeatherDisplay:10.37,2013-11-15 08:51:00,
2013-11-15 03:52:00,55.8,54.1,30.18,North,0,2.4,2.4,94,0.00,CLR,,0.00,WeatherDisplay:10.37,2013-11-15 08:52:00,
2013-11-15 03:54:00,55.8,53.8,30.18,NNE,22,2.3,2.3,93,0.00,CLR,,0.00,WeatherDisplay:10.37,2013-11-15 08:54:00,
2013-11-15 03:55:00,55.8,53.8,30.18,North,0,1.2,2.0,93,0.00,CLR,,0.00,WeatherDisplay:10.37,2013-11-15 08:55:00,
2013-11-15 03:56:00,55.8,53.8,30.18,North,0,1.6,1.6,93,0.00,CLR,,0.00,WeatherDisplay:10.37,2013-11-15 08:56:00,
2013-11-15 03:57:00,55.9,53.9,30.18,North,0,2.4,2.4,93,0.00,CLR,,0.00,WeatherDisplay:10.37,2013-11-15 08:57:00,
2013-11-15 03:59:00,55.9,53.9,30.18,North,0,2.6,2.6,93,0.00,CLR,,0.00,WeatherDisplay:10.37,2013-11-15 08:59:00,
2013-11-15 04:00:00,55.9,53.9,30.18,North,0,2.4,2.4,93,0.00,CLR,,0.00,WeatherDisplay:10.37,2013-11-15 09:00:00,
2013-11-15 04:02:00,55.9,53.9,30.18,NNW,338,1.2,1.6,93,0.00,CLR,,0.00,WeatherDisplay:10.37,2013-11-15 09:02:00,
2013-11-15 04:05:00,55.9,53.9,30.18,NW,315,1.2,1.2,93,0.00,CLR,,0.00,WeatherDisplay:10.37,2013-11-15 09:05:00,
2013-11-15 04:06:00,55.9,53.9,30.18,North,0,2.0,2.0,93,0.00,CLR,,0.00,WeatherDisplay:10.37,2013-11-15 09:06:00,
2013-11-15 04:07:00,55.9,53.9,30.18,North,0,3.8,3.8,93,0.00,CLR,,0.00,WeatherDisplay:10.37,2013-11-15 09:07:00,
2013-11-15 04:10:00,55.9,53.9,30.18,NW,315,2.0,2.0,93,0.00,CLR,,0.00,WeatherDisplay:10.37,2013-11-15 09:10:00,
2013-11-15 04:11:00,55.9,53.9,30.18,NW,315,2.0,2.0,93,0.00,CLR,,0.00,WeatherDisplay:10.37,2013-11-15 09:11:00,
2013-11-15 04:12:00,55.9,53.9,30.18,NW,315,2.4,2.4,93,0.00,CLR,,0.00,WeatherDisplay:10.37,2013-11-15 09:12:00,
2013-11-15 04:15:00,55.9,53.9,30.18,NNW,338,2.3,2.3,93,0.00,CLR,,0.00,WeatherDisplay:10.37,2013-11-15 09:15:00,
2013-11-15 04:17:00,55.9,53.9,30.18,NW,315,1.2,1.2,93,0.00,CLR,,0.00,WeatherDisplay:10.37,2013-11-15 09:17:00,
2013-11-15 04:21:00,55.9,53.9,30.18,NW,315,0.0,0.0,93,0.00,CLR,,0.00,WeatherDisplay:10.37,2013-11-15 09:21:00,
2013-11-15 04:22:00,55.9,53.9,30.18,NW,315,2.3,2.3,93,0.00,CLR,,0.00,WeatherDisplay:10.37,2013-11-15 09:22:00,
2013-11-15 04:23:00,55.9,53.9,30.18,NW,315,0.0,0.0,93,0.00,CLR,,0.00,WeatherDisplay:10.37,2013-11-15 09:23:00,
2013-11-15 04:26:00,55.9,53.9,30.18,NW,315,0.0,0.0,93,0.00,CLR,,0.00,WeatherDisplay:10.37,2013-11-15 09:26:00,
2013-11-15 04:27:00,55.9,53.9,30.18,NW,315,0.0,0.0,93,0.00,CLR,,0.00,WeatherDisplay:10.37,2013-11-15 09:27:00,
2013-11-15 04:28:00,55.9,53.6,30.18,NW,315,0.0,0.0,92,0.00,CLR,,0.00,WeatherDisplay:10.37,2013-11-15 09:28:00,
2013-11-15 04:31:00,55.8,53.5,30.21,NW,315,1.2,1.2,92,0.00,CLR,,0.00,WeatherDisplay:10.37,2013-11-15 09:31:00,
2013-11-15 04:32:00,55.8,53.5,30.21,NW,315,2.0,2.0,92,0.00,CLR,,0.00,WeatherDisplay:10.37,2013-11-15 09:32:00,
2013-11-15 04:33:00,55.9,53.6,30.21,NW,315,1.2,1.2,92,0.00,CLR,,0.00,WeatherDisplay:10.37,2013-11-15 09:33:00,
2013-11-15 04:34:00,55.9,53.6,30.21,NW,315,0.0,0.0,92,0.00,CLR,,0.00,WeatherDisplay:10.37,2013-11-15 09:34:00,
2013-11-15 04:37:00,55.8,53.5,30.21,NW,315,0.0,0.0,92,0.00,CLR,,0.00,WeatherDisplay:10.37,2013-11-15 09:37:00,
2013-11-15 04:38:00,55.8,53.5,30.21,NW,315,0.9,0.0,92,0.00,CLR,,0.00,WeatherDisplay:10.37,2013-11-15 09:38:00,
2013-11-15 04:39:00,55.8,53.5,30.21,NW,315,1.2,0.0,92,0.00,CLR,,0.00,WeatherDisplay:10.37,2013-11-15 09:39:00,
2013-11-15 04:42:00,55.8,53.5,30.21,NW,315,0.0,0.0,92,0.00,CLR,,0.00,WeatherDisplay:10.37,2013-11-15 09:42:00,
2013-11-15 04:43:00,55.8,53.5,30.21,NW,315,0.0,0.0,92,0.00,CLR,,0.00,WeatherDisplay:10.37,2013-11-15 09:43:00,
2013-11-15 04:44:00,55.8,53.5,30.21,NW,315,0.0,0.0,92,0.00,CLR,,0.00,WeatherDisplay:10.37,2013-11-15 09:44:00,
2013-11-15 04:47:00,55.8,53.5,30.21,NW,315,0.0,0.0,92,0.00,CLR,,0.00,WeatherDisplay:10.37,2013-11-15 09:47:00,
2013-11-15 04:48:00,55.8,53.5,30.21,NW,315,1.4,0.0,92,0.00,CLR,,0.00,WeatherDisplay:10.37,2013-11-15 09:48:00,
2013-11-15 04:49:00,55.8,53.5,30.21,NW,315,1.2,1.2,92,0.00,CLR,,0.00,WeatherDisplay:10.37,2013-11-15 09:49:00,
2013-11-15 04:50:00,55.8,53.5,30.21,NW,315,0.0,0.9,92,0.00,CLR,,0.00,WeatherDisplay:10.37,2013-11-15 09:50:00,
2013-11-15 04:52:00,55.8,53.5,30.21,NW,315,0.0,0.0,92,0.00,CLR,,0.00,WeatherDisplay:10.37,2013-11-15 09:52:00,
2013-11-15 04:53:00,55.8,53.5,30.21,NW,315,1.2,1.2,92,0.00,CLR,,0.00,WeatherDisplay:10.37,2013-11-15 09:53:00,
2013-11-15 04:54:00,55.8,53.5,30.21,NW,315,1.2,1.2,92,0.00,CLR,,0.00,WeatherDisplay:10.37,2013-11-15 09:54:00,
2013-11-15 04:55:00,55.8,53.5,30.21,NW,315,1.4,1.4,92,0.00,CLR,,0.00,WeatherDisplay:10.37,2013-11-15 09:55:00,
2013-11-15 04:57:00,55.8,53.5,30.21,NW,315,1.4,0.0,92,0.00,CLR,,0.00,WeatherDisplay:10.37,2013-11-15 09:57:00,
2013-11-15 04:59:00,55.8,53.5,30.21,NW,315,0.0,0.9,92,0.00,CLR,,0.00,WeatherDisplay:10.37,2013-11-15 09:59:00,
2013-11-15 05:00:00,55.8,53.5,30.21,NW,315,0.0,0.0,92,0.00,CLR,,0.00,WeatherDisplay:10.37,2013-11-15 10:00:00,
2013-11-15 05:03:00,55.8,53.5,30.21,NW,315,1.2,1.2,92,0.00,CLR,,0.00,WeatherDisplay:10.37,2013-11-15 10:03:00,
2013-11-15 05:04:00,55.8,53.5,30.21,NW,315,1.2,1.2,92,0.00,CLR,,0.00,WeatherDisplay:10.37,2013-11-15 10:04:00,
2013-11-15 05:05:00,55.8,53.5,30.21,NW,315,0.0,0.0,92,0.00,CLR,,0.00,WeatherDisplay:10.37,2013-11-15 10:05:00,
2013-11-15 05:08:00,55.8,53.5,30.21,NW,315,0.0,0.0,92,0.00,CLR,,0.00,WeatherDisplay:10.37,2013-11-15 10:08:00,
2013-11-15 05:09:00,55.8,53.5,30.21,NW,315,0.0,0.0,92,0.00,CLR,,0.00,WeatherDisplay:10.37,2013-11-15 10:09:00,
2013-11-15 05:10:00,55.8,53.5,30.21,NW,315,0.0,0.0,92,0.00,CLR,,0.00,WeatherDisplay:10.37,2013-11-15 10:10:00,
2013-11-15 05:11:00,55.8,53.5,30.21,NW,315,0.0,0.0,92,0.00,CLR,,0.00,WeatherDisplay:10.37,2013-11-15 10:11:00,
2013-11-15 05:13:00,55.8,53.5,30.21,NW,315,0.0,0.0,92,0.00,CLR,,0.00,WeatherDisplay:10.37,2013-11-15 10:13:00,
2013-11-15 05:14:00,55.8,53.5,30.21,NW,315,0.0,0.0,92,0.00,CLR,,0.00,WeatherDisplay:10.37,2013-11-15 10:14:00,
2013-11-15 05:15:00,55.8,53.5,30.21,NW,315,0.0,0.0,92,0.00,CLR,,0.00,WeatherDisplay:10.37,2013-11-15 10:15:00,
2013-11-15 05:16:00,55.8,53.5,30.21,NW,315,0.0,0.0,92,0.00,CLR,,0.00,WeatherDisplay:10.37,2013-11-15 10:16:00,
2013-11-15 05:17:00,55.8,53.5,30.21,NW,315,0.0,0.0,92,0.00,CLR,,0.00,WeatherDisplay:10.37,2013-11-15 10:17:00,
2013-11-15 05:18:00,55.8,53.5,30.21,NW,315,0.0,0.0,92,0.00,CLR,,0.00,WeatherDisplay:10.37,2013-11-15 10:18:00,
2013-11-15 05:19:00,55.8,53.5,30.21,NW,315,0.9,0.0,92,0.00,CLR,,0.00,WeatherDisplay:10.37,2013-11-15 10:19:00,
2013-11-15 05:20:00,55.8,53.5,30.21,NW,315,0.0,1.0,92,0.00,CLR,CLR,0.00,WeatherDisplay:10.37,2013-11-15 10:20:00,
2013-11-15 05:22:00,55.8,53.5,30.21,NW,315,1.2,1.2,92,0.00,CLR,,0.00,WeatherDisplay:10.37,2013-11-15 10:22:00,
2013-11-15 05:23:00,55.8,53.5,30.21,NW,315,0.0,0.0,92,0.00,CLR,,0.00,WeatherDisplay:10.37,2013-11-15 10:23:00,
2013-11-15 05:25:00,55.8,53.5,30.21,NW,315,1.2,0.0,92,0.00,CLR,,0.00,WeatherDisplay:10.37,2013-11-15 10:25:00,
2013-11-15 05:27:00,55.8,53.8,30.21,NW,315,0.0,0.0,93,0.00,CLR,,0.00,WeatherDisplay:10.37,2013-11-15 10:27:00,
2013-11-15 05:28:00,55.8,53.8,30.21,NW,315,0.0,0.0,93,0.00,CLR,,0.00,WeatherDisplay:10.37,2013-11-15 10:28:00,
2013-11-15 05:30:00,55.9,53.9,30.21,NW,315,0.0,0.0,93,0.00,CLR,,0.00,WeatherDisplay:10.37,2013-11-15 10:30:00,
2013-11-15 05:32:00,55.9,53.9,30.21,NW,315,1.4,0.0,93,0.00,CLR,,0.00,WeatherDisplay:10.37,2013-11-15 10:32:00,
2013-11-15 05:33:00,55.9,53.9,30.21,NW,315,1.2,1.2,93,0.00,CLR,,0.00,WeatherDisplay:10.37,2013-11-15 10:33:00,
2013-11-15 05:34:00,55.9,53.9,30.21,NW,315,0.0,0.0,93,0.00,CLR,,0.00,WeatherDisplay:10.37,2013-11-15 10:34:00,
2013-11-15 05:35:00,55.9,53.9,30.21,NW,315,0.0,0.0,93,0.00,CLR,,0.00,WeatherDisplay:10.37,2013-11-15 10:35:00,
2013-11-15 05:37:00,55.9,53.9,30.21,NW,315,1.4,0.0,93,0.00,CLR,,0.00,WeatherDisplay:10.37,2013-11-15 10:37:00,
2013-11-15 05:38:00,55.9,53.9,30.21,NW,315,1.2,0.0,93,0.00,CLR,,0.00,WeatherDisplay:10.37,2013-11-15 10:38:00,
2013-11-15 05:39:00,55.9,53.9,30.21,NNE,22,0.0,0.0,93,0.00,CLR,,0.00,WeatherDisplay:10.37,2013-11-15 10:39:00,
2013-11-15 05:40:00,55.9,53.9,30.21,North,0,2.3,2.3,93,0.00,CLR,,0.00,WeatherDisplay:10.37,2013-11-15 10:40:00,
2013-11-15 05:43:00,56.1,54.1,30.21,NNE,22,2.2,2.2,93,0.00,CLR,,0.00,WeatherDisplay:10.37,2013-11-15 10:43:00,
2013-11-15 05:44:00,56.1,54.1,30.21,NNW,338,2.4,3.1,93,0.00,CLR,,0.00,WeatherDisplay:10.37,2013-11-15 10:44:00,
2013-11-15 05:45:00,56.1,54.1,30.21,NNW,338,2.3,2.6,93,0.00,CLR,,0.00,WeatherDisplay:10.37,2013-11-15 10:45:00,
2013-11-15 05:48:00,56.1,54.4,30.21,NNE,22,2.0,2.0,94,0.00,CLR,,0.00,WeatherDisplay:10.37,2013-11-15 10:48:00,
2013-11-15 05:49:00,56.3,54.6,30.21,North,0,2.9,2.9,94,0.00,CLR,,0.00,WeatherDisplay:10.37,2013-11-15 10:49:00,
2013-11-15 05:50:00,56.1,54.4,30.21,North,0,2.3,2.3,94,0.00,CLR,,0.00,WeatherDisplay:10.37,2013-11-15 10:50:00,
2013-11-15 05:51:00,56.1,54.4,30.21,North,0,2.3,2.3,94,0.00,CLR,,0.00,WeatherDisplay:10.37,2013-11-15 10:51:00,
2013-11-15 05:53:00,56.3,54.6,30.21,NNW,338,4.3,4.3,94,0.00,CLR,,0.00,WeatherDisplay:10.37,2013-11-15 10:53:00,
2013-11-15 05:54:00,56.3,54.6,30.21,NE,45,4.6,4.6,94,0.00,CLR,,0.00,WeatherDisplay:10.37,2013-11-15 10:54:00,
2013-11-15 05:55:00,56.3,54.6,30.21,North,0,2.4,2.4,94,0.00,CLR,,0.00,WeatherDisplay:10.37,2013-11-15 10:55:00,
2013-11-15 05:56:00,56.3,54.6,30.21,NE,45,3.1,3.1,94,0.00,CLR,,0.00,WeatherDisplay:10.37,2013-11-15 10:56:00,
2013-11-15 05:58:00,56.3,54.6,30.18,NW,315,3.5,3.5,94,0.00,CLR,,0.00,WeatherDisplay:10.37,2013-11-15 10:58:00,
2013-11-15 05:59:00,56.3,54.6,30.18,NNE,22,2.3,2.3,94,0.00,CLR,,0.00,WeatherDisplay:10.37,2013-11-15 10:59:00,
2013-11-15 06:00:00,56.3,54.6,30.18,North,357,1.0,4.0,94,0.00,CLR,CLR,0.00,WeatherDisplay:10.37,2013-11-15 11:00:00,
2013-11-15 06:01:00,56.3,54.6,30.18,NNW,338,2.9,2.9,94,0.00,CLR,,0.00,WeatherDisplay:10.37,2013-11-15 11:01:00,
2013-11-15 06:04:00,56.3,54.6,30.18,North,0,2.2,2.2,94,0.00,CLR,,0.00,WeatherDisplay:10.37,2013-11-15 11:04:00,
2013-11-15 06:05:00,56.5,54.8,30.18,North,0,0.0,0.9,94,0.00,CLR,,0.00,WeatherDisplay:10.37,2013-11-15 11:05:00,
2013-11-15 06:06:00,56.5,54.8,30.18,NE,45,2.3,0.0,94,0.00,CLR,,0.00,WeatherDisplay:10.37,2013-11-15 11:06:00,
2013-11-15 06:09:00,56.5,54.8,30.18,NE,45,0.0,0.0,94,0.00,CLR,,0.00,WeatherDisplay:10.37,2013-11-15 11:09:00,
2013-11-15 06:10:00,56.5,54.8,30.18,NE,45,0.0,0.0,94,0.00,CLR,,0.00,WeatherDisplay:10.37,2013-11-15 11:10:00,
2013-11-15 06:11:00,56.5,54.8,30.18,NE,45,0.0,0.0,94,0.00,CLR,,0.00,WeatherDisplay:10.37,2013-11-15 11:11:00,
2013-11-15 06:14:00,56.5,54.8,30.18,NE,45,2.4,2.4,94,0.00,CLR,,0.00,WeatherDisplay:10.37,2013-11-15 11:14:00,
2013-11-15 06:15:00,56.5,54.8,30.18,NE,45,1.2,1.2,94,0.00,CLR,,0.00,WeatherDisplay:10.37,2013-11-15 11:15:00,
2013-11-15 06:16:00,56.5,54.8,30.18,NE,45,0.0,0.0,94,0.00,CLR,,0.00,WeatherDisplay:10.37,2013-11-15 11:16:00,
2013-11-15 06:19:00,56.5,54.8,30.18,NE,45,2.3,2.3,94,0.00,CLR,,0.00,WeatherDisplay:10.37,2013-11-15 11:19:00,
2013-11-15 06:20:00,56.7,55.0,30.18,NE,45,0.0,0.0,94,0.00,CLR,,0.00,WeatherDisplay:10.37,2013-11-15 11:20:00,
2013-11-15 06:21:00,56.7,55.0,30.18,NE,45,0.0,0.0,94,0.00,CLR,,0.00,WeatherDisplay:10.37,2013-11-15 11:21:00,
2013-11-15 06:22:00,56.7,55.0,30.18,NE,45,0.0,0.0,94,0.00,CLR,,0.00,WeatherDisplay:10.37,2013-11-15 11:22:00,
2013-11-15 06:25:00,56.7,55.0,30.18,NE,45,0.0,0.0,94,0.00,CLR,,0.00,WeatherDisplay:10.37,2013-11-15 11:25:00,
2013-11-15 06:26:00,56.7,55.0,30.18,NE,45,0.0,0.0,94,0.00,CLR,,0.00,WeatherDisplay:10.37,2013-11-15 11:26:00,
2013-11-15 06:27:00,56.7,55.0,30.18,NE,45,0.0,0.0,94,0.00,CLR,,0.00,WeatherDisplay:10.37,2013-11-15 11:27:00,
2013-11-15 06:30:00,56.7,55.0,30.21,NE,45,0.0,0.0,94,0.00,CLR,,0.00,WeatherDisplay:10.37,2013-11-15 11:30:00,
2013-11-15 06:31:00,56.7,55.0,30.21,NE,45,0.9,0.0,94,0.00,CLR,,0.00,WeatherDisplay:10.37,2013-11-15 11:31:00,
2013-11-15 06:32:00,56.7,55.0,30.21,NE,45,1.2,0.0,94,0.00,CLR,,0.00,WeatherDisplay:10.37,2013-11-15 11:32:00,
2013-11-15 06:35:00,56.7,55.0,30.21,NNE,22,0.0,0.0,94,0.00,CLR,,0.00,WeatherDisplay:10.37,2013-11-15 11:35:00,
2013-11-15 06:36:00,56.7,55.0,30.21,NW,315,1.2,1.4,94,0.00,CLR,,0.00,WeatherDisplay:10.37,2013-11-15 11:36:00,
2013-11-15 06:37:00,56.7,55.0,30.21,NW,315,0.0,0.0,94,0.00,CLR,,0.00,WeatherDisplay:10.37,2013-11-15 11:37:00,
2013-11-15 06:40:00,56.8,55.1,30.21,North,0,2.3,2.3,94,0.00,CLR,,0.00,WeatherDisplay:10.37,2013-11-15 11:40:00,
2013-11-15 06:41:00,56.8,55.1,30.21,NNW,338,2.0,2.0,94,0.00,CLR,,0.00,WeatherDisplay:10.37,2013-11-15 11:41:00,
2013-11-15 06:42:00,56.8,55.1,30.21,NNW,338,1.2,1.4,94,0.00,CLR,,0.00,WeatherDisplay:10.37,2013-11-15 11:42:00,
2013-11-15 06:43:00,56.8,55.1,30.21,NW,315,2.4,2.4,94,0.00,CLR,,0.00,WeatherDisplay:10.37,2013-11-15 11:43:00,
2013-11-15 06:45:00,56.8,55.1,30.21,NNW,338,3.1,3.1,94,0.00,CLR,,0.00,WeatherDisplay:10.37,2013-11-15 11:45:00,
2013-11-15 06:46:00,56.8,55.1,30.21,NW,315,2.3,2.3,94,0.00,CLR,,0.00,WeatherDisplay:10.37,2013-11-15 11:46:00,
2013-11-15 06:47:00,56.8,55.1,30.21,North,0,1.4,1.4,94,0.00,CLR,,0.00,WeatherDisplay:10.37,2013-11-15 11:47:00,
2013-11-15 06:48:00,56.8,55.1,30.21,North,0,2.0,2.0,94,0.00,CLR,,0.00,WeatherDisplay:10.37,2013-11-15 11:48:00,
2013-11-15 06:49:00,56.8,55.1,30.21,NNW,338,1.2,1.4,94,0.00,CLR,,0.00,WeatherDisplay:10.37,2013-11-15 11:49:00,
2013-11-15 06:50:00,56.8,55.1,30.21,NNW,338,0.0,0.0,94,0.00,CLR,,0.00,WeatherDisplay:10.37,2013-11-15 11:50:00,
2013-11-15 06:51:00,56.8,55.1,30.21,NNW,338,0.0,0.0,94,0.00,CLR,,0.00,WeatherDisplay:10.37,2013-11-15 11:51:00,
2013-11-15 06:52:00,56.8,55.1,30.21,NNW,338,0.0,0.0,94,0.00,CLR,,0.00,WeatherDisplay:10.37,2013-11-15 11:52:00,
2013-11-15 06:53:00,56.8,55.1,30.21,NNW,338,0.0,0.0,94,0.00,CLR,,0.00,WeatherDisplay:10.37,2013-11-15 11:53:00,
2013-11-15 06:54:00,56.8,55.1,30.21,North,0,0.0,0.0,94,0.00,CLR,,0.00,WeatherDisplay:10.37,2013-11-15 11:54:00,
2013-11-15 06:55:00,56.8,55.1,30.21,NNW,338,0.0,0.0,94,0.00,CLR,,0.00,WeatherDisplay:10.37,2013-11-15 11:55:00,
2013-11-15 06:56:00,56.8,55.1,30.21,NNW,338,0.0,0.0,94,0.00,CLR,,0.00,WeatherDisplay:10.37,2013-11-15 11:56:00,
2013-11-15 06:58:00,56.8,55.1,30.21,NW,315,0.0,0.0,94,0.00,CLR,,0.00,WeatherDisplay:10.37,2013-11-15 11:58:00,
2013-11-15 06:59:00,56.8,55.1,30.21,NW,315,0.0,0.0,94,0.00,CLR,,0.00,WeatherDisplay:10.37,2013-11-15 11:59:00,
2013-11-15 07:00:00,56.8,55.1,30.21,NW,315,0.0,0.0,94,0.00,CLR,,0.00,WeatherDisplay:10.37,2013-11-15 12:00:00,
2013-11-15 07:02:00,56.8,55.1,30.21,NW,315,2.3,2.3,94,0.00,CLR,,0.00,WeatherDisplay:10.37,2013-11-15 12:02:00,
2013-11-15 07:03:00,56.8,55.1,30.21,NW,315,2.4,2.4,94,0.00,CLR,,0.00,WeatherDisplay:10.37,2013-11-15 12:03:00,
2013-11-15 07:04:00,56.8,55.1,30.21,NW,315,2.3,2.3,94,0.00,CLR,,0.00,WeatherDisplay:10.37,2013-11-15 12:04:00,
2013-11-15 07:05:00,56.8,55.1,30.21,NW,315,1.2,1.6,94,0.00,CLR,,0.00,WeatherDisplay:10.37,2013-11-15 12:05:00,
2013-11-15 07:07:00,56.8,55.1,30.21,NW,315,2.3,2.3,94,0.00,CLR,,0.00,WeatherDisplay:10.37,2013-11-15 12:07:00,
2013-11-15 07:08:00,56.8,55.1,30.21,NW,315,1.2,0.0,94,0.00,CLR,,0.00,WeatherDisplay:10.37,2013-11-15 12:08:00,
2013-11-15 07:09:00,57.0,55.3,30.21,NW,315,1.6,0.0,94,0.00,CLR,,0.00,WeatherDisplay:10.37,2013-11-15 12:09:00,
2013-11-15 07:10:00,57.0,55.3,30.21,NNW,338,1.2,0.0,94,0.00,CLR,,0.00,WeatherDisplay:10.37,2013-11-15 12:10:00,
2013-11-15 07:11:00,57.0,55.3,30.21,NNW,338,1.2,1.2,94,0.00,CLR,,0.00,WeatherDisplay:10.37,2013-11-15 12:11:00,
2013-11-15 07:12:00,57.0,55.3,30.21,NNW,338,0.0,0.0,94,0.00,CLR,,0.00,WeatherDisplay:10.37,2013-11-15 12:12:00,
2013-11-15 07:13:00,57.0,55.3,30.21,NNW,338,0.0,0.0,94,0.00,CLR,,0.00,WeatherDisplay:10.37,2013-11-15 12:13:00,
2013-11-15 07:14:00,57.0,55.3,30.21,NNW,338,0.0,0.0,94,0.00,CLR,,0.00,WeatherDisplay:10.37,2013-11-15 12:14:00,
2013-11-15 07:15:00,57.0,55.3,30.21,NNW,338,0.0,0.0,94,0.00,CLR,,0.00,WeatherDisplay:10.37,2013-11-15 12:15:00,
2013-11-15 07:17:00,57.0,55.3,30.21,NNW,338,0.0,0.0,94,0.00,CLR,,0.00,WeatherDisplay:10.37,2013-11-15 12:17:00,
2013-11-15 07:18:00,57.0,55.3,30.21,NNW,338,0.0,0.0,94,0.00,CLR,,0.00,WeatherDisplay:10.37,2013-11-15 12:18:00,
2013-11-15 07:19:00,57.0,55.3,30.21,NNW,338,1.2,1.2,94,0.00,CLR,,0.00,WeatherDisplay:10.37,2013-11-15 12:19:00,
2013-11-15 07:21:00,57.2,55.5,30.21,West,270,1.2,1.2,94,0.00,CLR,,0.00,WeatherDisplay:10.37,2013-11-15 12:21:00,
2013-11-15 07:22:00,57.2,55.5,30.21,West,270,0.0,0.0,94,0.00,CLR,,0.00,WeatherDisplay:10.37,2013-11-15 12:22:00,
2013-11-15 07:23:00,57.2,55.5,30.21,West,270,1.2,0.0,94,0.00,CLR,,0.00,WeatherDisplay:10.37,2013-11-15 12:23:00,
2013-11-15 07:24:00,57.2,55.5,30.21,West,270,2.0,2.0,94,0.00,CLR,,0.00,WeatherDisplay:10.37,2013-11-15 12:24:00,
2013-11-15 07:26:00,57.2,55.5,30.21,WNW,292,0.0,0.0,94,0.00,CLR,,0.00,WeatherDisplay:10.37,2013-11-15 12:26:00,
2013-11-15 07:28:00,57.2,55.5,30.21,West,270,2.3,0.0,94,0.00,CLR,,0.00,WeatherDisplay:10.37,2013-11-15 12:28:00,
2013-11-15 07:29:00,57.2,55.5,30.24,West,270,2.3,2.3,94,0.00,CLR,,0.00,WeatherDisplay:10.37,2013-11-15 12:29:00,
2013-11-15 07:30:00,57.2,55.5,30.24,NW,315,2.0,2.0,94,0.00,CLR,,0.00,WeatherDisplay:10.37,2013-11-15 12:30:00,
2013-11-15 07:31:00,57.2,55.5,30.24,NW,315,2.3,2.3,94,0.00,CLR,,0.00,WeatherDisplay:10.37,2013-11-15 12:31:00,
2013-11-15 07:33:00,57.2,55.5,30.24,NW,315,0.0,0.0,94,0.00,CLR,,0.00,WeatherDisplay:10.37,2013-11-15 12:33:00,
2013-11-15 07:34:00,57.2,55.5,30.24,NW,315,1.6,1.6,94,0.00,CLR,,0.00,WeatherDisplay:10.37,2013-11-15 12:34:00,
2013-11-15 07:35:00,57.4,55.7,30.24,NW,315,1.2,0.0,94,0.00,CLR,,0.00,WeatherDisplay:10.37,2013-11-15 12:35:00,
2013-11-15 07:36:00,57.4,55.7,30.24,NW,315,0.0,0.0,94,0.00,CLR,,0.00,WeatherDisplay:10.37,2013-11-15 12:36:00,
2013-11-15 07:38:00,57.4,55.7,30.24,NW,315,0.0,0.0,94,0.00,CLR,,0.00,WeatherDisplay:10.37,2013-11-15 12:38:00,
2013-11-15 07:39:00,57.4,55.7,30.24,WNW,292,0.0,0.0,94,0.00,CLR,,0.00,WeatherDisplay:10.37,2013-11-15 12:39:00,
2013-11-15 07:40:00,57.4,55.7,30.24,NW,315,1.2,0.0,94,0.00,CLR,,0.00,WeatherDisplay:10.37,2013-11-15 12:40:00,
2013-11-15 07:41:00,57.4,55.7,30.24,WNW,292,1.2,0.0,94,0.00,CLR,,0.00,WeatherDisplay:10.37,2013-11-15 12:41:00,
2013-11-15 07:42:00,57.4,55.7,30.24,WNW,292,0.0,0.0,94,0.00,CLR,,0.00,WeatherDisplay:10.37,2013-11-15 12:42:00,
2013-11-15 07:44:00,57.6,55.8,30.24,WNW,292,0.0,0.0,94,0.00,CLR,,0.00,WeatherDisplay:10.37,2013-11-15 12:44:00,
2013-11-15 07:45:00,57.6,55.8,30.24,WNW,292,0.0,0.0,94,0.00,CLR,,0.00,WeatherDisplay:10.37,2013-11-15 12:45:00,
2013-11-15 07:47:00,57.6,55.8,30.24,WNW,292,0.0,0.0,94,0.00,CLR,,0.00,WeatherDisplay:10.37,2013-11-15 12:47:00,
2013-11-15 07:49:00,57.7,56.0,30.24,WNW,292,0.0,0.0,94,0.00,CLR,,0.00,WeatherDisplay:10.37,2013-11-15 12:49:00,
2013-11-15 07:50:00,57.7,56.0,30.24,WNW,292,0.0,0.0,94,0.00,CLR,,0.00,WeatherDisplay:10.37,2013-11-15 12:50:00,
2013-11-15 07:52:00,57.7,56.3,30.24,WNW,292,0.0,0.0,95,0.00,CLR,,0.00,WeatherDisplay:10.37,2013-11-15 12:52:00,
2013-11-15 07:54:00,57.9,56.5,30.24,NW,315,1.2,0.0,95,0.00,CLR,,0.00,WeatherDisplay:10.37,2013-11-15 12:54:00,
2013-11-15 07:55:00,57.9,56.5,30.24,NW,315,0.0,0.0,95,0.00,CLR,,0.00,WeatherDisplay:10.37,2013-11-15 12:55:00,
2013-11-15 07:56:00,57.9,56.5,30.24,NW,315,0.0,0.0,95,0.00,CLR,,0.00,WeatherDisplay:10.37,2013-11-15 12:56:00,
2013-11-15 07:57:00,57.9,56.5,30.24,NW,315,1.2,0.0,95,0.00,CLR,,0.00,WeatherDisplay:10.37,2013-11-15 12:57:00,
2013-11-15 07:58:00,57.9,56.5,30.24,NW,315,2.0,0.0,95,0.00,CLR,,0.00,WeatherDisplay:10.37,2013-11-15 12:58:00,
2013-11-15 08:00:00,57.9,56.5,30.24,NW,315,1.2,0.0,95,0.00,CLR,,0.00,WeatherDisplay:10.37,2013-11-15 13:00:00,
2013-11-15 08:01:00,57.9,56.5,30.24,NW,315,0.0,0.0,95,0.00,CLR,,0.00,WeatherDisplay:10.37,2013-11-15 13:01:00,
2013-11-15 08:02:00,57.9,56.5,30.24,NW,315,2.0,2.0,95,0.00,CLR,,0.00,WeatherDisplay:10.37,2013-11-15 13:02:00,
2013-11-15 08:05:00,58.1,56.7,30.24,NW,315,0.0,1.2,95,0.00,CLR,,0.00,WeatherDisplay:10.37,2013-11-15 13:05:00,
2013-11-15 08:06:00,58.1,56.7,30.24,NW,315,0.0,0.0,95,0.00,CLR,,0.00,WeatherDisplay:10.37,2013-11-15 13:06:00,
2013-11-15 08:07:00,58.1,56.7,30.24,NW,315,0.0,0.0,95,0.00,CLR,,0.00,WeatherDisplay:10.37,2013-11-15 13:07:00,
2013-11-15 08:10:00,58.1,56.7,30.24,NW,315,0.0,0.0,95,0.00,CLR,,0.00,WeatherDisplay:10.37,2013-11-15 13:10:00,
2013-11-15 08:11:00,58.1,56.7,30.24,NNW,338,1.2,0.0,95,0.00,CLR,,0.00,WeatherDisplay:10.37,2013-11-15 13:11:00,
2013-11-15 08:12:00,58.1,56.7,30.24,NNW,338,2.0,2.0,95,0.00,CLR,,0.00,WeatherDisplay:10.37,2013-11-15 13:12:00,
2013-11-15 08:15:00,58.3,56.9,30.24,NNW,338,1.4,1.4,95,0.00,CLR,,0.00,WeatherDisplay:10.37,2013-11-15 13:15:00,
2013-11-15 08:16:00,58.3,56.9,30.24,NW,315,1.4,1.4,95,0.00,CLR,,0.00,WeatherDisplay:10.37,2013-11-15 13:16:00,
2013-11-15 08:17:00,58.3,56.9,30.24,NW,315,2.3,2.3,95,0.00,CLR,,0.00,WeatherDisplay:10.37,2013-11-15 13:17:00,
2013-11-15 08:20:00,58.5,57.0,30.24,NNW,338,2.6,2.6,95,0.00,CLR,,0.00,WeatherDisplay:10.37,2013-11-15 13:20:00,
2013-11-15 08:21:00,58.5,57.0,30.24,NNW,338,2.4,2.4,95,0.00,CLR,,0.00,WeatherDisplay:10.37,2013-11-15 13:21:00,
2013-11-15 08:22:00,58.5,57.0,30.24,NNW,338,3.5,3.5,95,0.00,CLR,,0.00,WeatherDisplay:10.37,2013-11-15 13:22:00,
2013-11-15 08:23:00,58.5,57.0,30.24,NNW,338,3.5,3.5,95,0.00,CLR,,0.00,WeatherDisplay:10.37,2013-11-15 13:23:00,
2013-11-15 08:25:00,58.6,57.2,30.24,NW,315,2.3,2.3,95,0.00,CLR,,0.00,WeatherDisplay:10.37,2013-11-15 13:25:00,
2013-11-15 08:26:00,58.6,57.2,30.24,North,0,1.4,2.4,95,0.00,CLR,,0.00,WeatherDisplay:10.37,2013-11-15 13:26:00,
2013-11-15 08:27:00,58.6,57.2,30.24,WNW,292,2.4,2.4,95,0.00,CLR,,0.00,WeatherDisplay:10.37,2013-11-15 13:27:00,
2013-11-15 08:28:00,58.8,57.4,30.27,NNW,338,3.6,3.6,95,0.00,CLR,,0.00,WeatherDisplay:10.37,2013-11-15 13:28:00,
2013-11-15 08:29:00,58.8,57.4,30.27,NW,315,3.5,3.5,95,0.00,CLR,,0.00,WeatherDisplay:10.37,2013-11-15 13:29:00,
2013-11-15 08:31:00,58.8,57.4,30.27,NNW,338,3.6,3.6,95,0.00,CLR,,0.00,WeatherDisplay:10.37,2013-11-15 13:31:00,
2013-11-15 08:32:00,59.0,57.6,30.27,NNE,22,3.6,3.6,95,0.00,CLR,,0.00,WeatherDisplay:10.37,2013-11-15 13:32:00,
2013-11-15 08:33:00,59.0,57.6,30.27,NNE,22,2.9,2.9,95,0.00,CLR,,0.00,WeatherDisplay:10.37,2013-11-15 13:33:00,
2013-11-15 08:34:00,59.0,57.6,30.27,ENE,68,2.3,2.9,95,0.00,CLR,,0.00,WeatherDisplay:10.37,2013-11-15 13:34:00,
2013-11-15 08:36:00,59.2,57.7,30.27,North,0,3.6,3.6,95,0.00,CLR,,0.00,WeatherDisplay:10.37,2013-11-15 13:36:00,
2013-11-15 08:37:00,59.2,57.7,30.27,North,0,2.6,2.6,95,0.00,CLR,,0.00,WeatherDisplay:10.37,2013-11-15 13:37:00,
2013-11-15 08:39:00,59.2,57.7,30.27,NW,315,2.3,2.3,95,0.00,CLR,,0.00,WeatherDisplay:10.37,2013-11-15 13:39:00,
2013-11-15 08:40:00,59.2,57.7,30.27,NNW,338,2.4,2.4,95,0.00,CLR,,0.00,WeatherDisplay:10.37,2013-11-15 13:40:00,
2013-11-15 08:41:00,59.4,57.9,30.27,North,0,2.3,2.3,95,0.00,CLR,,0.00,WeatherDisplay:10.37,2013-11-15 13:41:00,
2013-11-15 08:42:00,59.4,57.9,30.27,NNE,22,2.3,2.3,95,0.00,CLR,,0.00,WeatherDisplay:10.37,2013-11-15 13:42:00,
2013-11-15 08:44:00,59.5,58.1,30.24,NNE,22,3.3,3.3,95,0.00,CLR,,0.00,WeatherDisplay:10.37,2013-11-15 13:44:00,
2013-11-15 08:45:00,59.5,58.1,30.24,North,0,2.6,2.6,95,0.00,CLR,,0.00,WeatherDisplay:10.37,2013-11-15 13:45:00,
2013-11-15 08:46:00,59.5,58.1,30.24,NNW,338,2.4,2.4,95,0.00,CLR,,0.00,WeatherDisplay:10.37,2013-11-15 13:46:00,
2013-11-15 08:47:00,59.7,58.3,30.24,NE,45,3.5,3.5,95,0.00,CLR,,0.00,WeatherDisplay:10.37,2013-11-15 13:47:00,
2013-11-15 08:50:00,59.7,58.3,30.24,NNW,338,3.5,3.5,95,0.00,CLR,,0.00,WeatherDisplay:10.37,2013-11-15 13:50:00,
2013-11-15 08:51:00,59.7,58.3,30.24,North,0,2.3,2.3,95,0.00,CLR,,0.00,WeatherDisplay:10.37,2013-11-15 13:51:00,
2013-11-15 08:52:00,59.9,58.5,30.24,North,0,2.3,2.4,95,0.00,CLR,,0.00,WeatherDisplay:10.37,2013-11-15 13:52:00,
2013-11-15 08:55:00,60.1,58.6,30.24,NNW,338,2.6,2.6,95,0.00,CLR,,0.00,WeatherDisplay:10.37,2013-11-15 13:55:00,
2013-11-15 08:56:00,60.1,58.6,30.24,NW,315,2.4,2.4,95,0.00,CLR,,0.00,WeatherDisplay:10.37,2013-11-15 13:56:00,
2013-11-15 08:57:00,60.3,58.8,30.24,North,0,3.1,3.1,95,0.00,CLR,,0.00,WeatherDisplay:10.37,2013-11-15 13:57:00,
2013-11-15 08:58:00,60.3,58.8,30.24,NNE,22,2.3,2.3,95,0.00,CLR,,0.00,WeatherDisplay:10.37,2013-11-15 13:58:00,
2013-11-15 09:01:00,60.6,59.5,30.24,NNE,22,3.6,0.0,96,0.00,CLR,,0.00,WeatherDisplay:10.37,2013-11-15 14:01:00,
2013-11-15 09:02:00,60.6,59.5,30.24,NNW,338,2.9,0.0,96,0.00,CLR,,0.00,WeatherDisplay:10.37,2013-11-15 14:02:00,
2013-11-15 09:03:00,60.6,59.2,30.24,North,0,2.3,3.6,95,0.00,CLR,,0.00,WeatherDisplay:10.37,2013-11-15 14:03:00,
2013-11-15 09:06:00,60.8,59.4,30.24,NE,45,3.5,3.5,95,0.00,CLR,,0.00,WeatherDisplay:10.37,2013-11-15 14:06:00,
2013-11-15 09:07:00,60.8,59.4,30.24,North,0,1.2,1.2,95,0.00,CLR,,0.00,WeatherDisplay:10.37,2013-11-15 14:07:00,
2013-11-15 09:08:00,61.0,59.5,30.24,NE,45,2.3,2.3,95,0.00,CLR,,0.00,WeatherDisplay:10.37,2013-11-15 14:08:00,
2013-11-15 09:12:00,61.2,59.7,30.24,NNE,22,0.0,2.0,95,0.00,CLR,,0.00,WeatherDisplay:10.37,2013-11-15 14:12:00,
2013-11-15 09:13:00,61.3,59.9,30.24,NNE,22,0.0,0.9,95,0.00,CLR,,0.00,WeatherDisplay:10.37,2013-11-15 14:13:00,
2013-11-15 09:17:00,61.5,60.1,30.24,NNW,338,1.2,1.2,95,0.00,CLR,,0.00,WeatherDisplay:10.37,2013-11-15 14:17:00,
2013-11-15 09:18:00,61.5,60.1,30.24,North,0,0.0,0.9,95,0.00,CLR,,0.00,WeatherDisplay:10.37,2013-11-15 14:18:00,
2013-11-15 09:22:00,61.7,60.0,30.24,North,0,2.4,2.4,94,0.00,CLR,,0.00,WeatherDisplay:10.37,2013-11-15 14:22:00,
2013-11-15 09:23:00,61.7,60.0,30.24,NNW,338,2.3,2.3,94,0.00,CLR,,0.00,WeatherDisplay:10.37,2013-11-15 14:23:00,
2013-11-15 09:24:00,61.7,60.0,30.24,North,0,0.0,1.6,94,0.00,CLR,,0.00,WeatherDisplay:10.37,2013-11-15 14:24:00,
2013-11-15 09:27:00,61.9,60.1,30.24,NNW,338,2.3,2.3,94,0.00,CLR,,0.00,WeatherDisplay:10.37,2013-11-15 14:27:00,
2013-11-15 09:28:00,61.9,59.8,30.24,NNW,338,3.5,3.5,93,0.00,CLR,,0.00,WeatherDisplay:10.37,2013-11-15 14:28:00,
2013-11-15 09:29:00,61.9,59.8,30.24,NNW,338,1.2,2.4,93,0.00,CLR,,0.00,WeatherDisplay:10.37,2013-11-15 14:29:00,
2013-11-15 09:32:00,62.1,60.0,30.24,NNW,338,2.3,2.3,93,0.00,CLR,,0.00,WeatherDisplay:10.37,2013-11-15 14:32:00,
2013-11-15 09:33:00,62.1,60.0,30.24,NNE,22,2.2,2.2,93,0.00,CLR,,0.00,WeatherDisplay:10.37,2013-11-15 14:33:00,
2013-11-15 09:34:00,62.2,60.2,30.24,NW,315,1.2,1.2,93,0.00,CLR,,0.00,WeatherDisplay:10.37,2013-11-15 14:34:00,
2013-11-15 09:38:00,62.2,59.9,30.24,NW,315,2.4,2.6,92,0.00,CLR,,0.00,WeatherDisplay:10.37,2013-11-15 14:38:00,
2013-11-15 09:39:00,62.4,60.1,30.24,NNE,22,5.8,5.8,92,0.00,CLR,,0.00,WeatherDisplay:10.37,2013-11-15 14:39:00,
2013-11-15 09:43:00,62.4,59.8,30.24,NE,45,3.5,3.5,91,0.00,CLR,,0.00,WeatherDisplay:10.37,2013-11-15 14:43:00,
2013-11-15 09:44:00,62.4,59.8,30.21,North,0,3.1,3.1,91,0.00,CLR,,0.00,WeatherDisplay:10.37,2013-11-15 14:44:00,
2013-11-15 09:48:00,62.8,59.5,30.21,NNE,22,3.5,3.5,89,0.00,CLR,,0.00,WeatherDisplay:10.37,2013-11-15 14:48:00,
2013-11-15 09:49:00,63.0,59.7,30.21,NE,45,2.6,2.6,89,0.00,CLR,,0.00,WeatherDisplay:10.37,2013-11-15 14:49:00,
2013-11-15 09:50:00,63.0,59.7,30.21,North,0,3.8,3.8,89,0.00,CLR,,0.00,WeatherDisplay:10.37,2013-11-15 14:50:00,
2013-11-15 09:53:00,63.3,60.0,30.21,NNE,22,1.2,1.2,89,0.00,CLR,,0.00,WeatherDisplay:10.37,2013-11-15 14:53:00,
2013-11-15 09:54:00,63.5,60.2,30.21,North,0,2.6,2.6,89,0.00,CLR,,0.00,WeatherDisplay:10.37,2013-11-15 14:54:00,
2013-11-15 09:55:00,63.5,60.2,30.21,NNW,338,3.1,3.1,89,0.00,CLR,,0.00,WeatherDisplay:10.37,2013-11-15 14:55:00,
2013-11-15 09:58:00,63.9,60.9,30.21,NE,45,2.3,2.3,90,0.00,CLR,,0.00,WeatherDisplay:10.37,2013-11-15 14:58:00,
2013-11-15 10:00:00,64.0,61.0,30.21,NE,45,0.0,1.2,90,0.00,CLR,,0.00,WeatherDisplay:10.37,2013-11-15 15:00:00,
2013-11-15 10:01:00,64.2,61.5,30.21,NE,45,0.0,0.0,91,0.00,CLR,,0.00,WeatherDisplay:10.37,2013-11-15 15:01:00,
2013-11-15 10:04:00,64.4,61.4,30.21,North,0,3.5,3.5,90,0.00,CLR,,0.00,WeatherDisplay:10.37,2013-11-15 15:04:00,
2013-11-15 10:05:00,64.2,60.9,30.21,North,0,3.5,3.5,89,0.00,CLR,,0.00,WeatherDisplay:10.37,2013-11-15 15:05:00,
2013-11-15 10:06:00,64.4,60.8,30.21,NW,315,3.5,3.5,88,0.00,CLR,,0.00,WeatherDisplay:10.37,2013-11-15 15:06:00,
2013-11-15 10:09:00,64.6,60.6,30.21,North,0,2.4,3.3,87,0.00,CLR,,0.00,WeatherDisplay:10.37,2013-11-15 15:09:00,
2013-11-15 10:10:00,64.8,60.5,30.21,NW,315,3.6,3.6,86,0.00,CLR,,0.00,WeatherDisplay:10.37,2013-11-15 15:10:00,
2013-11-15 10:11:00,64.8,60.5,30.21,NNW,338,3.5,3.5,86,0.00,CLR,,0.00,WeatherDisplay:10.37,2013-11-15 15:11:00,
2013-11-15 10:14:00,65.3,59.7,30.21,NNE,22,2.9,2.9,82,0.00,CLR,,0.00,WeatherDisplay:10.37,2013-11-15 15:14:00,
2013-11-15 10:15:00,65.5,59.8,30.21,NE,45,2.4,2.6,82,0.00,CLR,,0.00,WeatherDisplay:10.37,2013-11-15 15:15:00,
2013-11-15 10:16:00,65.5,59.8,30.21,NNW,338,2.3,2.6,82,0.00,CLR,,0.00,WeatherDisplay:10.37,2013-11-15 15:16:00,
2013-11-15 10:17:00,65.5,60.2,30.21,WNW,292,3.5,3.5,83,0.00,CLR,,0.00,WeatherDisplay:10.37,2013-11-15 15:17:00,
2013-11-15 10:20:00,65.7,60.0,30.21,ENE,68,2.3,2.3,82,0.00,CLR,,0.00,WeatherDisplay:10.37,2013-11-15 15:20:00,
2013-11-15 10:21:00,65.7,60.0,30.21,NNW,338,2.4,2.4,82,0.00,CLR,,0.00,WeatherDisplay:10.37,2013-11-15 15:21:00,
2013-11-15 10:23:00,65.7,59.3,30.21,North,0,2.3,2.9,80,0.00,CLR,,0.00,WeatherDisplay:10.37,2013-11-15 15:23:00,
2013-11-15 10:25:00,65.8,58.8,30.21,North,0,3.5,3.5,78,0.00,CLR,,0.00,WeatherDisplay:10.37,2013-11-15 15:25:00,
2013-11-15 10:26:00,65.8,58.8,30.21,North,0,3.5,3.5,78,0.00,CLR,,0.00,WeatherDisplay:10.37,2013-11-15 15:26:00,
2013-11-15 10:28:00,66.2,58.8,30.21,NW,315,2.6,2.6,77,0.00,CLR,,0.00,WeatherDisplay:10.37,2013-11-15 15:28:00,
2013-11-15 10:30:00,66.6,59.1,30.21,NW,315,2.4,2.4,77,0.00,CLR,,0.00,WeatherDisplay:10.37,2013-11-15 15:30:00,
2013-11-15 10:31:00,66.6,59.1,30.21,NNW,338,2.3,2.3,77,0.00,CLR,,0.00,WeatherDisplay:10.37,2013-11-15 15:31:00,
2013-11-15 10:32:00,66.9,59.5,30.21,North,0,3.1,3.1,77,0.00,CLR,,0.00,WeatherDisplay:10.37,2013-11-15 15:32:00,
2013-11-15 10:33:00,66.9,58.7,30.21,WNW,292,3.5,3.5,75,0.00,CLR,,0.00,WeatherDisplay:10.37,2013-11-15 15:33:00,
2013-11-15 10:35:00,66.7,57.0,30.21,NNW,338,4.6,4.6,71,0.00,CLR,,0.00,WeatherDisplay:10.37,2013-11-15 15:35:00,
2013-11-15 10:36:00,66.7,55.8,30.21,NNW,338,4.6,4.6,68,0.00,CLR,,0.00,WeatherDisplay:10.37,2013-11-15 15:36:00,
2013-11-15 10:37:00,66.9,56.0,30.21,NNW,338,2.9,3.6,68,0.00,CLR,,0.00,WeatherDisplay:10.37,2013-11-15 15:37:00,
2013-11-15 10:39:00,66.7,55.4,30.21,North,0,4.6,4.6,67,0.00,CLR,,0.00,WeatherDisplay:10.37,2013-11-15 15:39:00,
2013-11-15 10:41:00,66.9,55.6,30.21,ENE,68,2.3,2.3,67,0.00,CLR,,0.00,WeatherDisplay:10.37,2013-11-15 15:41:00,
2013-11-15 10:42:00,67.1,55.8,30.21,ENE,68,1.2,2.0,67,0.00,CLR,,0.00,WeatherDisplay:10.37,2013-11-15 15:42:00,
2013-11-15 10:45:00,67.3,55.9,30.21,NE,48,2.0,3.0,67,0.00,CLR,CLR,0.00,WeatherDisplay:10.37,2013-11-15 15:45:00,
2013-11-15 10:46:00,67.5,56.1,30.21,NE,45,2.3,2.3,67,0.00,CLR,,0.00,WeatherDisplay:10.37,2013-11-15 15:46:00,
2013-11-15 10:47:00,67.5,56.1,30.21,NE,45,1.2,1.6,67,0.00,CLR,,0.00,WeatherDisplay:10.37,2013-11-15 15:47:00,
2013-11-15 10:48:00,67.6,56.7,30.21,NE,45,1.6,1.6,68,0.00,CLR,,0.00,WeatherDisplay:10.37,2013-11-15 15:48:00,
2013-11-15 10:50:00,67.8,56.9,30.21,NE,45,1.2,1.2,68,0.00,CLR,,0.00,WeatherDisplay:10.37,2013-11-15 15:50:00,
2013-11-15 10:51:00,67.8,56.9,30.21,NW,315,2.6,2.6,68,0.00,CLR,,0.00,WeatherDisplay:10.37,2013-11-15 15:51:00,
2013-11-15 10:52:00,67.8,56.5,30.21,NNW,338,2.3,2.3,67,0.00,CLR,,0.00,WeatherDisplay:10.37,2013-11-15 15:52:00,
2013-11-15 10:53:00,67.8,56.5,30.21,NNW,338,2.3,2.3,67,0.00,CLR,,0.00,WeatherDisplay:10.37,2013-11-15 15:53:00,
2013-11-15 10:55:00,67.8,55.6,30.21,NNW,338,2.4,2.4,65,0.00,CLR,,0.00,WeatherDisplay:10.37,2013-11-15 15:55:00,
2013-11-15 10:56:00,67.8,55.6,30.21,NW,315,2.4,2.4,65,0.00,CLR,,0.00,WeatherDisplay:10.37,2013-11-15 15:56:00,
2013-11-15 10:58:00,67.8,54.8,30.21,NNW,338,2.3,2.6,63,0.00,CLR,,0.00,WeatherDisplay:10.37,2013-11-15 15:58:00,
2013-11-15 11:00:00,67.6,53.7,30.21,NNE,22,4.6,4.6,61,0.00,CLR,,0.00,WeatherDisplay:10.37,2013-11-15 16:00:00,
2013-11-15 11:01:00,67.6,53.7,30.21,North,0,4.6,4.6,61,0.00,CLR,,0.00,WeatherDisplay:10.37,2013-11-15 16:01:00,
2013-11-15 11:03:00,67.6,53.7,30.21,NNE,22,3.5,3.5,61,0.00,CLR,,0.00,WeatherDisplay:10.37,2013-11-15 16:03:00,
2013-11-15 11:06:00,67.6,52.8,30.21,North,0,2.6,2.6,59,0.00,CLR,,0.00,WeatherDisplay:10.37,2013-11-15 16:06:00,
2013-11-15 11:07:00,67.6,53.3,30.21,NE,45,4.0,4.0,60,0.00,CLR,,0.00,WeatherDisplay:10.37,2013-11-15 16:07:00,
2013-11-15 11:08:00,67.6,53.3,30.21,NW,315,2.3,2.4,60,0.00,CLR,,0.00,WeatherDisplay:10.37,2013-11-15 16:08:00,
2013-11-15 11:09:00,67.6,53.3,30.21,NNW,338,1.6,2.4,60,0.00,CLR,,0.00,WeatherDisplay:10.37,2013-11-15 16:09:00,
2013-11-15 11:11:00,67.6,53.3,30.21,NW,315,2.3,2.3,60,0.00,CLR,,0.00,WeatherDisplay:10.37,2013-11-15 16:11:00,
2013-11-15 11:12:00,67.8,53.9,30.21,NW,315,2.4,2.4,61,0.00,CLR,,0.00,WeatherDisplay:10.37,2013-11-15 16:12:00,
2013-11-15 11:13:00,67.8,53.9,30.21,NW,315,2.4,2.4,61,0.00,CLR,,0.00,WeatherDisplay:10.37,2013-11-15 16:13:00,
2013-11-15 11:15:00,67.8,53.9,30.21,NNW,338,1.2,2.4,61,0.00,CLR,,0.00,WeatherDisplay:10.37,2013-11-15 16:15:00,
2013-11-15 11:16:00,67.8,53.9,30.21,North,0,2.3,2.3,61,0.00,CLR,,0.00,WeatherDisplay:10.37,2013-11-15 16:16:00,
2013-11-15 11:17:00,67.8,53.9,30.21,North,0,2.9,2.9,61,0.00,CLR,,0.00,WeatherDisplay:10.37,2013-11-15 16:17:00,
2013-11-15 11:18:00,67.8,53.4,30.21,NNW,338,1.4,2.6,60,0.00,CLR,,0.00,WeatherDisplay:10.37,2013-11-15 16:18:00,
2013-11-15 11:20:00,67.8,53.9,30.21,NW,315,2.3,2.3,61,0.00,CLR,,0.00,WeatherDisplay:10.37,2013-11-15 16:20:00,
2013-11-15 11:21:00,67.6,53.3,30.21,NNE,22,1.2,2.0,60,0.00,CLR,,0.00,WeatherDisplay:10.37,2013-11-15 16:21:00,
2013-11-15 11:22:00,67.8,53.9,30.21,West,270,2.0,2.0,61,0.00,CLR,,0.00,WeatherDisplay:10.37,2013-11-15 16:22:00,
2013-11-15 11:24:00,67.8,53.9,30.21,West,270,0.0,0.9,61,0.00,CLR,,0.00,WeatherDisplay:10.37,2013-11-15 16:24:00,
2013-11-15 11:25:00,67.8,53.9,30.21,NW,315,1.2,0.0,61,0.00,CLR,,0.00,WeatherDisplay:10.37,2013-11-15 16:25:00,
2013-11-15 11:26:00,67.8,53.9,30.21,WNW,292,2.3,2.3,61,0.00,CLR,,0.00,WeatherDisplay:10.37,2013-11-15 16:26:00,
2013-11-15 11:27:00,67.8,53.9,30.21,NW,315,3.1,3.1,61,0.00,CLR,,0.00,WeatherDisplay:10.37,2013-11-15 16:27:00,
2013-11-15 11:29:00,67.6,53.3,30.21,NW,315,2.3,2.3,60,0.00,CLR,,0.00,WeatherDisplay:10.37,2013-11-15 16:29:00,
2013-11-15 11:30:00,67.6,53.3,30.21,NW,315,1.4,1.4,60,0.00,CLR,,0.00,WeatherDisplay:10.37,2013-11-15 16:30:00,
2013-11-15 11:32:00,67.8,53.9,30.21,NW,315,1.6,0.0,61,0.00,CLR,,0.00,WeatherDisplay:10.37,2013-11-15 16:32:00,
2013-11-15 11:33:00,67.8,53.9,30.21,NW,315,1.2,0.0,61,0.00,CLR,,0.00,WeatherDisplay:10.37,2013-11-15 16:33:00,
2013-11-15 11:34:00,67.8,53.9,30.21,NW,315,1.4,0.0,61,0.00,CLR,,0.00,WeatherDisplay:10.37,2013-11-15 16:34:00,
2013-11-15 11:35:00,67.8,53.9,30.21,NW,315,1.2,1.2,61,0.00,CLR,,0.00,WeatherDisplay:10.37,2013-11-15 16:35:00,
2013-11-15 11:37:00,67.8,53.9,30.21,NW,315,1.2,1.2,61,0.00,CLR,,0.00,WeatherDisplay:10.37,2013-11-15 16:37:00,
2013-11-15 11:38:00,67.8,53.9,30.21,NW,315,0.9,0.9,61,0.00,CLR,,0.00,WeatherDisplay:10.37,2013-11-15 16:38:00,
2013-11-15 11:39:00,67.8,53.9,30.21,WNW,292,2.2,2.2,61,0.00,CLR,,0.00,WeatherDisplay:10.37,2013-11-15 16:39:00,
2013-11-15 11:40:00,67.8,53.9,30.21,WNW,292,2.3,2.3,61,0.00,CLR,,0.00,WeatherDisplay:10.37,2013-11-15 16:40:00,
2013-11-15 11:42:00,67.8,53.9,30.21,West,270,2.2,2.2,61,0.00,CLR,,0.00,WeatherDisplay:10.37,2013-11-15 16:42:00,
2013-11-15 11:43:00,67.8,53.4,30.18,West,270,2.3,2.3,60,0.00,CLR,,0.00,WeatherDisplay:10.37,2013-11-15 16:43:00,
2013-11-15 11:44:00,67.8,53.4,30.18,West,270,1.2,1.4,60,0.00,CLR,,0.00,WeatherDisplay:10.37,2013-11-15 16:44:00,
2013-11-15 11:45:00,67.8,53.4,30.18,NW,315,1.6,1.6,60,0.00,CLR,,0.00,WeatherDisplay:10.37,2013-11-15 16:45:00,
2013-11-15 11:47:00,67.6,53.3,30.18,West,270,0.0,0.0,60,0.00,CLR,,0.00,WeatherDisplay:10.37,2013-11-15 16:47:00,
2013-11-15 11:48:00,67.6,53.3,30.18,WNW,292,1.2,1.2,60,0.00,CLR,,0.00,WeatherDisplay:10.37,2013-11-15 16:48:00,
2013-11-15 11:49:00,67.6,53.3,30.18,NW,315,1.4,1.4,60,0.00,CLR,,0.00,WeatherDisplay:10.37,2013-11-15 16:49:00,
2013-11-15 11:50:00,67.6,53.3,30.18,NW,315,1.4,1.4,60,0.00,CLR,,0.00,WeatherDisplay:10.37,2013-11-15 16:50:00,
2013-11-15 11:53:00,67.5,53.1,30.18,NW,315,2.3,2.3,60,0.00,CLR,,0.00,WeatherDisplay:10.37,2013-11-15 16:53:00,
2013-11-15 11:54:00,67.5,53.1,30.18,NW,315,1.4,1.6,60,0.00,CLR,,0.00,WeatherDisplay:10.37,2013-11-15 16:54:00,
2013-11-15 11:55:00,67.5,53.1,30.18,NW,311,1.0,2.0,60,0.00,CLR,CLR,0.00,WeatherDisplay:10.37,2013-11-15 16:55:00,
2013-11-15 11:58:00,67.3,52.9,30.18,NW,315,0.0,0.0,60,0.00,CLR,,0.00,WeatherDisplay:10.37,2013-11-15 16:58:00,
2013-11-15 11:59:00,67.3,52.9,30.21,NW,315,0.0,0.0,60,0.00,CLR,,0.00,WeatherDisplay:10.37,2013-11-15 16:59:00,
2013-11-15 12:00:00,67.3,52.9,30.21,NW,315,1.2,0.0,60,0.00,CLR,,0.00,WeatherDisplay:10.37,2013-11-15 17:00:00,
2013-11-15 12:01:00,67.3,53.4,30.21,NW,315,0.0,0.0,61,0.00,CLR,,0.00,WeatherDisplay:10.37,2013-11-15 17:01:00,
2013-11-15 12:03:00,67.3,53.4,30.21,NW,315,0.9,0.0,61,0.00,CLR,,0.00,WeatherDisplay:10.37,2013-11-15 17:03:00,
2013-11-15 12:04:00,67.3,53.4,30.21,NW,315,1.6,1.6,61,0.00,CLR,,0.00,WeatherDisplay:10.37,2013-11-15 17:04:00,
2013-11-15 12:05:00,67.3,53.4,30.21,NW,315,1.2,0.0,61,0.00,CLR,,0.00,WeatherDisplay:10.37,2013-11-15 17:05:00,
2013-11-15 12:06:00,67.3,53.4,30.21,NW,315,0.0,0.0,61,0.00,CLR,,0.00,WeatherDisplay:10.37,2013-11-15 17:06:00,
2013-11-15 12:08:00,67.3,53.8,30.21,NW,315,0.0,0.0,62,0.00,CLR,,0.00,WeatherDisplay:10.37,2013-11-15 17:08:00,
2013-11-15 12:10:00,67.1,53.6,30.21,NW,315,0.9,0.0,62,0.00,CLR,,0.00,WeatherDisplay:10.37,2013-11-15 17:10:00,
2013-11-15 12:11:00,67.1,53.6,30.21,NW,315,2.0,0.0,62,0.00,CLR,,0.00,WeatherDisplay:10.37,2013-11-15 17:11:00,
2013-11-15 12:13:00,67.1,54.1,30.21,NW,315,1.2,1.2,63,0.00,CLR,,0.00,WeatherDisplay:10.37,2013-11-15 17:13:00,
2013-11-15 12:15:00,67.1,54.5,30.21,NW,315,0.0,0.0,64,0.00,CLR,,0.00,WeatherDisplay:10.37,2013-11-15 17:15:00,
2013-11-15 12:16:00,67.1,54.5,30.21,NNW,338,0.0,0.0,64,0.00,CLR,,0.00,WeatherDisplay:10.37,2013-11-15 17:16:00,
2013-11-15 12:18:00,66.9,54.3,30.21,NNW,338,2.6,2.6,64,0.00,CLR,,0.00,WeatherDisplay:10.37,2013-11-15 17:18:00,
2013-11-15 12:20:00,66.9,54.8,30.21,North,0,1.6,1.6,65,0.00,CLR,,0.00,WeatherDisplay:10.37,2013-11-15 17:20:00,
2013-11-15 12:21:00,66.9,54.8,30.21,North,0,1.4,1.6,65,0.00,CLR,,0.00,WeatherDisplay:10.37,2013-11-15 17:21:00,
2013-11-15 12:22:00,66.7,54.6,30.21,North,0,2.2,2.2,65,0.00,CLR,,0.00,WeatherDisplay:10.37,2013-11-15 17:22:00,
2013-11-15 12:24:00,66.7,54.6,30.21,NE,45,0.0,0.0,65,0.00,CLR,,0.00,WeatherDisplay:10.37,2013-11-15 17:24:00,
2013-11-15 12:26:00,66.7,54.6,30.21,NNE,22,0.0,1.2,65,0.00,CLR,,0.00,WeatherDisplay:10.37,2013-11-15 17:26:00,
2013-11-15 12:27:00,66.7,54.6,30.21,NNE,22,0.0,0.0,65,0.00,CLR,,0.00,WeatherDisplay:10.37,2013-11-15 17:27:00,
2013-11-15 12:29:00,66.9,55.2,30.21,North,0,2.3,2.3,66,0.00,CLR,,0.00,WeatherDisplay:10.37,2013-11-15 17:29:00,
2013-11-15 12:31:00,66.9,55.2,30.21,North,0,2.0,2.0,66,0.00,CLR,,0.00,WeatherDisplay:10.37,2013-11-15 17:31:00,
2013-11-15 12:32:00,66.9,55.6,30.21,North,0,1.2,1.4,67,0.00,CLR,,0.00,WeatherDisplay:10.37,2013-11-15 17:32:00,
2013-11-15 12:34:00,66.9,55.6,30.21,NE,45,1.2,1.2,67,0.00,CLR,,0.00,WeatherDisplay:10.37,2013-11-15 17:34:00,
2013-11-15 12:36:00,67.1,55.8,30.21,NE,45,0.0,0.0,67,0.00,CLR,,0.00,WeatherDisplay:10.37,2013-11-15 17:36:00,
2013-11-15 12:37:00,67.1,55.8,30.21,NE,45,0.0,0.0,67,0.00,CLR,,0.00,WeatherDisplay:10.37,2013-11-15 17:37:00,
2013-11-15 12:39:00,67.3,56.4,30.21,NE,45,1.2,0.0,68,0.00,CLR,,0.00,WeatherDisplay:10.37,2013-11-15 17:39:00,
2013-11-15 12:41:00,67.3,56.4,30.21,ENE,68,1.4,1.4,68,0.00,CLR,,0.00,WeatherDisplay:10.37,2013-11-15 17:41:00,
2013-11-15 12:42:00,67.3,56.4,30.21,ENE,68,0.0,0.0,68,0.00,CLR,,0.00,WeatherDisplay:10.37,2013-11-15 17:42:00,
2013-11-15 12:43:00,67.5,56.5,30.21,ENE,68,0.0,0.0,68,0.00,CLR,,0.00,WeatherDisplay:10.37,2013-11-15 17:43:00,
2013-11-15 12:44:00,67.3,56.4,30.21,ENE,68,2.2,2.2,68,0.00,CLR,,0.00,WeatherDisplay:10.37,2013-11-15 17:44:00,
2013-11-15 12:46:00,67.3,56.4,30.21,East,90,2.4,2.4,68,0.00,CLR,,0.00,WeatherDisplay:10.37,2013-11-15 17:46:00,
2013-11-15 12:47:00,67.3,56.4,30.21,East,90,2.3,2.3,68,0.00,CLR,,0.00,WeatherDisplay:10.37,2013-11-15 17:47:00,
2013-11-15 12:48:00,67.3,56.4,30.21,East,90,1.6,2.2,68,0.00,CLR,,0.00,WeatherDisplay:10.37,2013-11-15 17:48:00,
2013-11-15 12:49:00,67.5,56.5,30.21,East,90,1.2,1.6,68,0.00,CLR,,0.00,WeatherDisplay:10.37,2013-11-15 17:49:00,
2013-11-15 12:51:00,67.6,57.1,30.21,East,90,2.4,2.4,69,0.00,CLR,,0.00,WeatherDisplay:10.37,2013-11-15 17:51:00,
2013-11-15 12:52:00,67.6,56.7,30.21,East,90,2.3,2.3,68,0.00,CLR,,0.00,WeatherDisplay:10.37,2013-11-15 17:52:00,
2013-11-15 12:53:00,67.6,56.7,30.21,ENE,68,2.3,2.3,68,0.00,CLR,,0.00,WeatherDisplay:10.37,2013-11-15 17:53:00,
2013-11-15 12:54:00,67.6,56.7,30.21,NE,45,2.3,2.4,68,0.00,CLR,,0.00,WeatherDisplay:10.37,2013-11-15 17:54:00,
2013-11-15 12:56:00,67.6,56.7,30.21,NE,45,2.2,2.2,68,0.00,CLR,,0.00,WeatherDisplay:10.37,2013-11-15 17:56:00,
2013-11-15 12:57:00,67.6,56.7,30.21,NE,45,2.3,2.3,68,0.00,CLR,,0.00,WeatherDisplay:10.37,2013-11-15 17:57:00,
2013-11-15 12:58:00,67.6,56.7,30.21,NE,45,1.2,1.2,68,0.00,CLR,,0.00,WeatherDisplay:10.37,2013-11-15 17:58:00,
2013-11-15 12:59:00,67.8,57.3,30.18,ENE,68,1.2,1.2,69,0.00,CLR,,0.00,WeatherDisplay:10.37,2013-11-15 17:59:00,
2013-11-15 13:00:00,67.8,57.3,30.18,ENE,68,1.2,1.2,69,0.00,CLR,,0.00,WeatherDisplay:10.37,2013-11-15 18:00:00,
2013-11-15 13:01:00,67.8,57.3,30.18,NNE,22,3.5,3.5,69,0.00,CLR,,0.00,WeatherDisplay:10.37,2013-11-15 18:01:00,
2013-11-15 13:02:00,67.8,56.9,30.18,ENE,68,3.5,3.5,68,0.00,CLR,,0.00,WeatherDisplay:10.37,2013-11-15 18:02:00,
2013-11-15 13:04:00,68.0,57.0,30.18,ENE,68,0.9,0.0,68,0.00,CLR,,0.00,WeatherDisplay:10.37,2013-11-15 18:04:00,
2013-11-15 13:05:00,68.0,57.0,30.18,ENE,68,1.2,0.0,68,0.00,CLR,,0.00,WeatherDisplay:10.37,2013-11-15 18:05:00,
2013-11-15 13:07:00,68.2,57.2,30.18,ENE,68,2.3,2.3,68,0.00,CLR,,0.00,WeatherDisplay:10.37,2013-11-15 18:07:00,
2013-11-15 13:08:00,68.2,57.2,30.18,ENE,68,1.2,2.0,68,0.00,CLR,,0.00,WeatherDisplay:10.37,2013-11-15 18:08:00,
2013-11-15 13:09:00,68.0,56.6,30.18,East,90,2.3,2.3,67,0.00,CLR,,0.00,WeatherDisplay:10.37,2013-11-15 18:09:00,
2013-11-15 13:10:00,68.0,56.6,30.18,East,90,2.3,2.3,67,0.00,CLR,,0.00,WeatherDisplay:10.37,2013-11-15 18:10:00,
2013-11-15 13:11:00,68.0,56.6,30.18,ENE,68,2.4,2.4,67,0.00,CLR,,0.00,WeatherDisplay:10.37,2013-11-15 18:11:00,
2013-11-15 13:12:00,68.0,56.6,30.18,ENE,68,2.6,2.6,67,0.00,CLR,,0.00,WeatherDisplay:10.37,2013-11-15 18:12:00,
2013-11-15 13:13:00,68.0,56.6,30.18,ENE,68,2.6,2.6,67,0.00,CLR,,0.00,WeatherDisplay:10.37,2013-11-15 18:13:00,
2013-11-15 13:15:00,67.8,56.5,30.18,ENE,68,3.5,3.5,67,0.00,CLR,,0.00,WeatherDisplay:10.37,2013-11-15 18:15:00,
2013-11-15 13:17:00,67.6,55.9,30.18,NNE,22,1.6,1.6,66,0.00,CLR,,0.00,WeatherDisplay:10.37,2013-11-15 18:17:00,
2013-11-15 13:18:00,67.6,55.9,30.18,NE,45,2.4,2.4,66,0.00,CLR,,0.00,WeatherDisplay:10.37,2013-11-15 18:18:00,
2013-11-15 13:20:00,67.6,55.9,30.18,NE,51,1.0,2.0,66,0.00,CLR,CLR,0.00,WeatherDisplay:10.37,2013-11-15 18:20:00,
2013-11-15 13:23:00,67.6,56.3,30.18,NE,45,2.0,2.0,67,0.00,CLR,,0.00,WeatherDisplay:10.37,2013-11-15 18:23:00,
2013-11-15 13:25:00,67.6,56.3,30.18,NE,45,2.4,2.4,67,0.00,CLR,,0.00,WeatherDisplay:10.37,2013-11-15 18:25:00,
2013-11-15 13:26:00,67.6,56.3,30.18,NE,45,2.3,2.3,67,0.00,CLR,,0.00,WeatherDisplay:10.37,2013-11-15 18:26:00,
2013-11-15 13:28:00,67.6,56.3,30.18,ENE,68,1.2,2.0,67,0.00,CLR,,0.00,WeatherDisplay:10.37,2013-11-15 18:28:00,
2013-11-15 13:29:00,67.6,56.3,30.15,ENE,68,1.2,1.2,67,0.00,CLR,,0.00,WeatherDisplay:10.37,2013-11-15 18:29:00,
2013-11-15 13:30:00,67.6,56.7,30.15,ENE,68,0.0,0.0,68,0.00,CLR,,0.00,WeatherDisplay:10.37,2013-11-15 18:30:00,
2013-11-15 13:31:00,67.6,56.7,30.15,ENE,68,0.0,0.0,68,0.00,CLR,,0.00,WeatherDisplay:10.37,2013-11-15 18:31:00,
2013-11-15 13:33:00,67.6,56.7,30.15,ENE,68,1.6,0.0,68,0.00,CLR,,0.00,WeatherDisplay:10.37,2013-11-15 18:33:00,
2013-11-15 13:35:00,67.5,56.5,30.15,ENE,68,2.4,0.0,68,0.00,CLR,,0.00,WeatherDisplay:10.37,2013-11-15 18:35:00,
2013-11-15 13:36:00,67.5,56.5,30.15,ENE,68,2.3,0.0,68,0.00,CLR,,0.00,WeatherDisplay:10.37,2013-11-15 18:36:00,
2013-11-15 13:38:00,67.5,56.5,30.15,ENE,68,1.2,1.2,68,0.00,CLR,,0.00,WeatherDisplay:10.37,2013-11-15 18:38:00,
2013-11-15 13:39:00,67.5,56.5,30.15,ENE,68,2.3,2.3,68,0.00,CLR,,0.00,WeatherDisplay:10.37,2013-11-15 18:39:00,
2013-11-15 13:40:00,67.5,56.5,30.15,ENE,68,1.4,0.0,68,0.00,CLR,,0.00,WeatherDisplay:10.37,2013-11-15 18:40:00,
2013-11-15 13:41:00,67.5,56.5,30.15,ENE,68,1.6,0.0,68,0.00,CLR,,0.00,WeatherDisplay:10.37,2013-11-15 18:41:00,
2013-11-15 13:43:00,67.5,56.5,30.15,ENE,68,1.4,1.4,68,0.00,CLR,,0.00,WeatherDisplay:10.37,2013-11-15 18:43:00,
2013-11-15 13:44:00,67.5,56.9,30.15,ENE,68,1.2,1.2,69,0.00,CLR,,0.00,WeatherDisplay:10.37,2013-11-15 18:44:00,
2013-11-15 13:45:00,67.5,56.9,30.15,ENE,68,0.0,0.0,69,0.00,CLR,,0.00,WeatherDisplay:10.37,2013-11-15 18:45:00,
2013-11-15 13:46:00,67.5,56.9,30.15,ENE,68,0.0,0.0,69,0.00,CLR,,0.00,WeatherDisplay:10.37,2013-11-15 18:46:00,
2013-11-15 13:47:00,67.5,56.9,30.15,ENE,68,0.0,0.0,69,0.00,CLR,,0.00,WeatherDisplay:10.37,2013-11-15 18:47:00,
2013-11-15 13:49:00,67.5,56.9,30.15,ENE,68,0.0,0.0,69,0.00,CLR,,0.00,WeatherDisplay:10.37,2013-11-15 18:49:00,
2013-11-15 13:50:00,67.6,57.1,30.15,ENE,68,0.0,0.0,69,0.00,CLR,,0.00,WeatherDisplay:10.37,2013-11-15 18:50:00,
2013-11-15 13:51:00,67.6,57.1,30.15,ENE,68,0.0,0.0,69,0.00,CLR,,0.00,WeatherDisplay:10.37,2013-11-15 18:51:00,
2013-11-15 13:52:00,67.6,57.5,30.15,ENE,68,0.9,0.0,70,0.00,CLR,,0.00,WeatherDisplay:10.37,2013-11-15 18:52:00,
2013-11-15 13:54:00,67.6,57.5,30.15,ENE,68,0.0,0.0,70,0.00,CLR,,0.00,WeatherDisplay:10.37,2013-11-15 18:54:00,
2013-11-15 13:55:00,67.8,57.7,30.15,ENE,68,2.3,0.0,70,0.00,CLR,,0.00,WeatherDisplay:10.37,2013-11-15 18:55:00,
2013-11-15 13:56:00,67.8,57.7,30.15,ENE,68,2.3,0.0,70,0.00,CLR,,0.00,WeatherDisplay:10.37,2013-11-15 18:56:00,
2013-11-15 13:57:00,67.8,57.7,30.15,ENE,68,2.2,2.2,70,0.00,CLR,,0.00,WeatherDisplay:10.37,2013-11-15 18:57:00,
2013-11-15 13:59:00,67.6,57.5,30.18,ENE,68,2.3,2.3,70,0.00,CLR,,0.00,WeatherDisplay:10.37,2013-11-15 18:59:00,
2013-11-15 14:01:00,67.6,57.5,30.18,ENE,68,1.2,1.2,70,0.00,CLR,,0.00,WeatherDisplay:10.37,2013-11-15 19:01:00,
2013-11-15 14:02:00,67.5,57.3,30.18,ENE,68,1.6,1.6,70,0.00,CLR,,0.00,WeatherDisplay:10.37,2013-11-15 19:02:00,
2013-11-15 14:03:00,67.5,57.3,30.18,ESE,112,3.5,3.5,70,0.00,CLR,,0.00,WeatherDisplay:10.37,2013-11-15 19:03:00,
2013-11-15 14:04:00,67.5,57.3,30.18,ESE,112,3.5,3.5,70,0.00,CLR,,0.00,WeatherDisplay:10.37,2013-11-15 19:04:00,
2013-11-15 14:07:00,67.3,57.2,30.18,ESE,112,2.3,2.3,70,0.00,CLR,,0.00,WeatherDisplay:10.37,2013-11-15 19:07:00,
2013-11-15 14:08:00,67.3,57.2,30.18,ESE,112,2.3,2.3,70,0.00,CLR,,0.00,WeatherDisplay:10.37,2013-11-15 19:08:00,
2013-11-15 14:09:00,67.3,57.2,30.18,ESE,112,1.2,1.6,70,0.00,CLR,,0.00,WeatherDisplay:10.37,2013-11-15 19:09:00,
2013-11-15 14:12:00,67.1,57.0,30.18,ESE,112,2.4,2.4,70,0.00,CLR,,0.00,WeatherDisplay:10.37,2013-11-15 19:12:00,
2013-11-15 14:13:00,67.1,57.0,30.12,ESE,112,1.6,2.0,70,0.00,CLR,,0.00,WeatherDisplay:10.37,2013-11-15 19:13:00,
2013-11-15 14:14:00,67.1,57.0,30.12,ESE,112,1.6,2.0,70,0.00,CLR,,0.00,WeatherDisplay:10.37,2013-11-15 19:14:00,
2013-11-15 14:15:00,67.1,57.0,30.12,ESE,112,1.0,3.0,70,0.00,CLR,CLR,0.00,WeatherDisplay:10.37,2013-11-15 19:15:00,
2013-11-15 14:17:00,67.1,57.0,30.12,ESE,112,0.0,0.0,70,0.00,CLR,,0.00,WeatherDisplay:10.37,2013-11-15 19:17:00,
2013-11-15 14:19:00,67.1,57.0,30.12,ESE,112,2.4,2.4,70,0.00,CLR,,0.00,WeatherDisplay:10.37,2013-11-15 19:19:00,
2013-11-15 14:20:00,67.1,57.0,30.12,SE,135,2.4,2.4,70,0.00,CLR,,0.00,WeatherDisplay:10.37,2013-11-15 19:20:00,
2013-11-15 14:22:00,66.9,57.2,30.12,SE,135,2.9,2.9,71,0.00,CLR,,0.00,WeatherDisplay:10.37,2013-11-15 19:22:00,
2013-11-15 14:24:00,66.7,57.0,30.12,SE,135,2.9,2.9,71,0.00,CLR,,0.00,WeatherDisplay:10.37,2013-11-15 19:24:00,
2013-11-15 14:25:00,66.7,57.0,30.12,SE,135,3.5,3.5,71,0.00,CLR,,0.00,WeatherDisplay:10.37,2013-11-15 19:25:00,
2013-11-15 14:27:00,66.7,57.0,30.12,SE,135,2.3,2.3,71,0.00,CLR,,0.00,WeatherDisplay:10.37,2013-11-15 19:27:00,
2013-11-15 14:29:00,66.7,57.0,30.15,SE,135,2.3,2.3,71,0.00,CLR,,0.00,WeatherDisplay:10.37,2013-11-15 19:29:00,
2013-11-15 14:30:00,66.7,57.0,30.15,SE,135,1.2,1.4,71,0.00,CLR,,0.00,WeatherDisplay:10.37,2013-11-15 19:30:00,
2013-11-15 14:31:00,66.7,57.4,30.15,ESE,112,1.6,1.6,72,0.00,CLR,,0.00,WeatherDisplay:10.37,2013-11-15 19:31:00,
2013-11-15 14:33:00,66.6,57.3,30.15,ESE,112,2.3,2.3,72,0.00,CLR,,0.00,WeatherDisplay:10.37,2013-11-15 19:33:00,
2013-11-15 14:34:00,66.6,57.3,30.15,ESE,112,2.0,2.0,72,0.00,CLR,,0.00,WeatherDisplay:10.37,2013-11-15 19:34:00,
2013-11-15 14:35:00,66.6,57.3,30.15,ESE,112,2.3,2.3,72,0.00,CLR,,0.00,WeatherDisplay:10.37,2013-11-15 19:35:00,
2013-11-15 14:36:00,66.6,57.3,30.15,SE,135,2.3,2.3,72,0.00,CLR,,0.00,WeatherDisplay:10.37,2013-11-15 19:36:00,
2013-11-15 14:38:00,66.6,57.3,30.15,SE,135,2.6,2.6,72,0.00,CLR,,0.00,WeatherDisplay:10.37,2013-11-15 19:38:00,
2013-11-15 14:39:00,66.4,57.1,30.15,ESE,112,2.6,2.6,72,0.00,CLR,,0.00,WeatherDisplay:10.37,2013-11-15 19:39:00,
2013-11-15 14:40:00,66.4,57.1,30.15,SE,135,3.1,3.1,72,0.00,CLR,,0.00,WeatherDisplay:10.37,2013-11-15 19:40:00,
2013-11-15 14:41:00,66.4,57.5,30.15,SE,135,2.3,2.6,73,0.00,CLR,,0.00,WeatherDisplay:10.37,2013-11-15 19:41:00,
2013-11-15 14:43:00,66.4,57.5,30.15,SE,135,1.4,1.4,73,0.00,CLR,,0.00,WeatherDisplay:10.37,2013-11-15 19:43:00,
2013-11-15 14:44:00,66.4,57.8,30.15,East,90,2.3,2.3,74,0.00,CLR,,0.00,WeatherDisplay:10.37,2013-11-15 19:44:00,
2013-11-15 14:45:00,66.4,57.8,30.15,ESE,112,2.6,2.6,74,0.00,CLR,,0.00,WeatherDisplay:10.37,2013-11-15 19:45:00,
2013-11-15 14:46:00,66.4,57.8,30.15,ESE,112,2.4,2.6,74,0.00,CLR,,0.00,WeatherDisplay:10.37,2013-11-15 19:46:00,
2013-11-15 14:48:00,66.2,58.0,30.15,ESE,112,2.4,2.4,75,0.00,CLR,,0.00,WeatherDisplay:10.37,2013-11-15 19:48:00,
2013-11-15 14:50:00,66.2,58.0,30.15,SE,135,2.3,2.3,75,0.00,CLR,,0.00,WeatherDisplay:10.37,2013-11-15 19:50:00,
2013-11-15 14:51:00,66.2,58.0,30.15,SE,135,2.3,2.3,75,0.00,CLR,,0.00,WeatherDisplay:10.37,2013-11-15 19:51:00,
2013-11-15 14:53:00,66.2,58.0,30.15,ESE,112,2.3,2.3,75,0.00,CLR,,0.00,WeatherDisplay:10.37,2013-11-15 19:53:00,
2013-11-15 14:55:00,66.2,58.4,30.15,ESE,112,2.4,2.4,76,0.00,CLR,,0.00,WeatherDisplay:10.37,2013-11-15 19:55:00,
2013-11-15 14:56:00,66.2,58.4,30.15,ESE,112,1.6,2.2,76,0.00,CLR,,0.00,WeatherDisplay:10.37,2013-11-15 19:56:00,
2013-11-15 14:57:00,66.2,58.4,30.15,ESE,112,2.0,2.0,76,0.00,CLR,,0.00,WeatherDisplay:10.37,2013-11-15 19:57:00,
2013-11-15 14:58:00,66.2,58.4,30.12,ESE,112,0.0,0.9,76,0.00,CLR,,0.00,WeatherDisplay:10.37,2013-11-15 19:58:00,
2013-11-15 15:00:00,66.2,58.4,30.12,ESE,112,0.0,0.0,76,0.00,CLR,,0.00,WeatherDisplay:10.37,2013-11-15 20:00:00,
2013-11-15 15:01:00,66.2,58.4,30.12,ESE,112,0.9,0.9,76,0.00,CLR,,0.00,WeatherDisplay:10.37,2013-11-15 20:01:00,
2013-11-15 15:02:00,66.2,58.4,30.12,ESE,112,1.2,1.2,76,0.00,CLR,,0.00,WeatherDisplay:10.37,2013-11-15 20:02:00,
2013-11-15 15:04:00,66.0,58.6,30.12,ESE,112,1.2,1.4,77,0.00,CLR,,0.00,WeatherDisplay:10.37,2013-11-15 20:04:00,
2013-11-15 15:05:00,66.0,58.6,30.12,ESE,112,2.9,2.9,77,0.00,CLR,,0.00,WeatherDisplay:10.37,2013-11-15 20:05:00,
2013-11-15 15:07:00,66.0,59.0,30.12,ESE,112,2.9,2.9,78,0.00,CLR,,0.00,WeatherDisplay:10.37,2013-11-15 20:07:00,
2013-11-15 15:08:00,66.0,59.0,30.12,ESE,112,1.6,2.2,78,0.00,CLR,,0.00,WeatherDisplay:10.37,2013-11-15 20:08:00,
2013-11-15 15:09:00,66.0,59.0,30.12,ESE,112,1.4,1.4,78,0.00,CLR,,0.00,WeatherDisplay:10.37,2013-11-15 20:09:00,
2013-11-15 15:11:00,66.0,59.0,30.12,ESE,112,2.3,2.3,78,0.00,CLR,,0.00,WeatherDisplay:10.37,2013-11-15 20:11:00,
2013-11-15 15:12:00,66.0,59.0,30.12,ESE,112,1.4,1.4,78,0.00,CLR,,0.00,WeatherDisplay:10.37,2013-11-15 20:12:00,
2013-11-15 15:13:00,66.0,59.0,30.09,ESE,112,1.2,1.2,78,0.00,CLR,,0.00,WeatherDisplay:10.37,2013-11-15 20:13:00,
2013-11-15 15:14:00,66.0,59.0,30.09,ESE,112,1.2,0.0,78,0.00,CLR,,0.00,WeatherDisplay:10.37,2013-11-15 20:14:00,
2013-11-15 15:15:00,66.0,59.0,30.09,ESE,112,1.2,0.0,78,0.00,CLR,,0.00,WeatherDisplay:10.37,2013-11-15 20:15:00,
2013-11-15 15:17:00,66.0,59.0,30.09,ESE,112,0.0,0.0,78,0.00,CLR,,0.00,WeatherDisplay:10.37,2013-11-15 20:17:00,
2013-11-15 15:19:00,66.0,59.0,30.09,ESE,112,0.9,0.0,78,0.00,CLR,,0.00,WeatherDisplay:10.37,2013-11-15 20:19:00,
2013-11-15 15:20:00,66.0,59.0,30.09,ESE,112,1.2,0.0,78,0.00,CLR,,0.00,WeatherDisplay:10.37,2013-11-15 20:20:00,
2013-11-15 15:22:00,66.2,59.1,30.09,ESE,112,0.9,0.0,78,0.00,CLR,,0.00,WeatherDisplay:10.37,2013-11-15 20:22:00,
2013-11-15 15:23:00,66.2,59.1,30.09,ESE,112,0.0,0.0,78,0.00,CLR,,0.00,WeatherDisplay:10.37,2013-11-15 20:23:00,
2013-11-15 15:24:00,66.2,59.1,30.09,ESE,112,0.0,0.0,78,0.00,CLR,,0.00,WeatherDisplay:10.37,2013-11-15 20:24:00,
2013-11-15 15:25:00,66.2,59.1,30.09,ESE,112,0.0,0.0,78,0.00,CLR,,0.00,WeatherDisplay:10.37,2013-11-15 20:25:00,
2013-11-15 15:27:00,66.4,59.7,30.09,ESE,112,0.0,0.0,79,0.00,CLR,,0.00,WeatherDisplay:10.37,2013-11-15 20:27:00,
2013-11-15 15:28:00,66.4,59.7,30.09,ESE,112,0.0,0.0,79,0.00,CLR,,0.00,WeatherDisplay:10.37,2013-11-15 20:28:00,
2013-11-15 15:29:00,66.4,59.7,30.12,ESE,112,1.2,1.2,79,0.00,CLR,,0.00,WeatherDisplay:10.37,2013-11-15 20:29:00,
2013-11-15 15:30:00,66.4,59.7,30.12,ESE,112,1.2,1.2,79,0.00,CLR,,0.00,WeatherDisplay:10.37,2013-11-15 20:30:00,
2013-11-15 15:32:00,66.4,59.7,30.12,ESE,112,0.0,0.0,79,0.00,CLR,,0.00,WeatherDisplay:10.37,2013-11-15 20:32:00,
2013-11-15 15:33:00,66.4,59.7,30.12,ESE,112,1.2,0.0,79,0.00,CLR,,0.00,WeatherDisplay:10.37,2013-11-15 20:33:00,
2013-11-15 15:35:00,66.4,59.7,30.12,ESE,112,0.0,0.9,79,0.00,CLR,,0.00,WeatherDisplay:10.37,2013-11-15 20:35:00,
2013-11-15 15:36:00,66.4,59.7,30.12,ESE,112,2.0,0.0,79,0.00,CLR,,0.00,WeatherDisplay:10.37,2013-11-15 20:36:00,
2013-11-15 15:37:00,66.4,59.7,30.12,ESE,112,2.4,2.4,79,0.00,CLR,,0.00,WeatherDisplay:10.37,2013-11-15 20:37:00,
2013-11-15 15:39:00,66.4,59.7,30.12,ESE,112,2.3,2.3,79,0.00,CLR,,0.00,WeatherDisplay:10.37,2013-11-15 20:39:00,
2013-11-15 15:40:00,66.4,59.7,30.12,ESE,112,1.0,2.0,79,0.00,CLR,CLR,0.00,WeatherDisplay:10.37,2013-11-15 20:40:00,
2013-11-15 15:41:00,66.4,59.7,30.12,ESE,112,0.0,0.0,79,0.00,CLR,,0.00,WeatherDisplay:10.37,2013-11-15 20:41:00,
2013-11-15 15:43:00,66.4,59.7,30.12,ESE,112,0.0,0.0,79,0.00,CLR,,0.00,WeatherDisplay:10.37,2013-11-15 20:43:00,
2013-11-15 15:44:00,66.4,59.7,30.12,ESE,112,0.0,0.0,79,0.00,CLR,,0.00,WeatherDisplay:10.37,2013-11-15 20:44:00,
2013-11-15 15:45:00,66.4,59.7,30.12,ESE,112,1.2,1.2,79,0.00,CLR,,0.00,WeatherDisplay:10.37,2013-11-15 20:45:00,
2013-11-15 15:46:00,66.2,59.5,30.12,ESE,112,0.0,0.9,79,0.00,CLR,,0.00,WeatherDisplay:10.37,2013-11-15 20:46:00,
2013-11-15 15:48:00,66.2,59.5,30.12,ESE,112,0.0,0.0,79,0.00,CLR,,0.00,WeatherDisplay:10.37,2013-11-15 20:48:00,
2013-11-15 15:49:00,66.2,59.5,30.12,ESE,112,0.0,0.0,79,0.00,CLR,,0.00,WeatherDisplay:10.37,2013-11-15 20:49:00,
2013-11-15 15:50:00,66.2,59.5,30.12,ESE,112,0.0,0.0,79,0.00,CLR,,0.00,WeatherDisplay:10.37,2013-11-15 20:50:00,
2013-11-15 15:51:00,66.2,59.5,30.12,ESE,112,0.0,0.0,79,0.00,CLR,,0.00,WeatherDisplay:10.37,2013-11-15 20:51:00,
2013-11-15 15:52:00,66.2,59.5,30.12,ESE,112,0.0,0.0,79,0.00,CLR,,0.00,WeatherDisplay:10.37,2013-11-15 20:52:00,
2013-11-15 15:53:00,66.2,59.5,30.12,ESE,112,0.0,0.0,79,0.00,CLR,,0.00,WeatherDisplay:10.37,2013-11-15 20:53:00,
2013-11-15 15:56:00,66.2,59.5,30.12,ESE,112,0.0,0.0,79,0.00,CLR,,0.00,WeatherDisplay:10.37,2013-11-15 20:56:00,
2013-11-15 15:58:00,66.2,59.5,30.12,ESE,112,0.0,0.0,79,0.00,CLR,,0.00,WeatherDisplay:10.37,2013-11-15 20:58:00,
2013-11-15 16:01:00,66.2,59.5,30.12,ESE,112,0.0,0.0,79,0.00,CLR,,0.00,WeatherDisplay:10.37,2013-11-15 21:01:00,
2013-11-15 16:03:00,66.2,59.5,30.12,ESE,112,0.0,0.0,79,0.00,CLR,,0.00,WeatherDisplay:10.37,2013-11-15 21:03:00,
2013-11-15 16:05:00,66.2,59.5,30.12,ESE,112,2.3,2.3,79,0.00,CLR,,0.00,WeatherDisplay:10.37,2013-11-15 21:05:00,
2013-11-15 16:06:00,66.2,59.5,30.12,ESE,112,2.3,2.3,79,0.00,CLR,,0.00,WeatherDisplay:10.37,2013-11-15 21:06:00,
2013-11-15 16:08:00,66.2,59.5,30.12,NW,315,2.3,2.3,79,0.00,CLR,,0.00,WeatherDisplay:10.37,2013-11-15 21:08:00,
2013-11-15 16:09:00,66.2,59.5,30.12,NW,315,1.6,2.0,79,0.00,CLR,,0.00,WeatherDisplay:10.37,2013-11-15 21:09:00,
2013-11-15 16:11:00,66.2,59.8,30.12,NNW,338,1.4,1.4,80,0.00,CLR,,0.00,WeatherDisplay:10.37,2013-11-15 21:11:00,
2013-11-15 16:12:00,66.0,59.7,30.12,NW,315,1.6,1.6,80,0.00,CLR,,0.00,WeatherDisplay:10.37,2013-11-15 21:12:00,
2013-11-15 16:13:00,66.0,59.7,30.12,NW,315,1.4,1.4,80,0.00,CLR,,0.00,WeatherDisplay:10.37,2013-11-15 21:13:00,
2013-11-15 16:14:00,66.0,59.7,30.12,NW,315,1.2,1.2,80,0.00,CLR,,0.00,WeatherDisplay:10.37,2013-11-15 21:14:00,
2013-11-15 16:16:00,66.0,59.7,30.12,NW,315,0.0,0.0,80,0.00,CLR,,0.00,WeatherDisplay:10.37,2013-11-15 21:16:00,
2013-11-15 16:17:00,66.0,59.7,30.12,NW,315,0.0,0.0,80,0.00,CLR,,0.00,WeatherDisplay:10.37,2013-11-15 21:17:00,
2013-11-15 16:18:00,66.0,59.7,30.12,NW,315,0.0,0.0,80,0.00,CLR,,0.00,WeatherDisplay:10.37,2013-11-15 21:18:00,
2013-11-15 16:19:00,66.0,59.7,30.12,NW,315,0.0,0.0,80,0.00,CLR,,0.00,WeatherDisplay:10.37,2013-11-15 21:19:00,
2013-11-15 16:21:00,66.0,59.7,30.12,NW,315,1.4,0.0,80,0.00,CLR,,0.00,WeatherDisplay:10.37,2013-11-15 21:21:00,
2013-11-15 16:22:00,66.0,59.7,30.12,NW,315,0.0,0.0,80,0.00,CLR,,0.00,WeatherDisplay:10.37,2013-11-15 21:22:00,
2013-11-15 16:23:00,66.0,59.7,30.12,NW,315,0.0,0.0,80,0.00,CLR,,0.00,WeatherDisplay:10.37,2013-11-15 21:23:00,
2013-11-15 16:24:00,65.8,59.5,30.12,NW,315,0.0,0.0,80,0.00,CLR,,0.00,WeatherDisplay:10.37,2013-11-15 21:24:00,
2013-11-15 16:26:00,65.8,59.8,30.12,NW,315,0.0,0.0,81,0.00,CLR,,0.00,WeatherDisplay:10.37,2013-11-15 21:26:00,
2013-11-15 16:27:00,65.8,59.8,30.12,NW,315,0.0,0.0,81,0.00,CLR,,0.00,WeatherDisplay:10.37,2013-11-15 21:27:00,
2013-11-15 16:29:00,65.8,59.8,30.15,NW,315,0.0,0.0,81,0.00,CLR,,0.00,WeatherDisplay:10.37,2013-11-15 21:29:00,
2013-11-15 16:30:00,65.8,59.8,30.15,NW,315,0.0,0.0,81,0.00,CLR,CLR,0.00,WeatherDisplay:10.37,2013-11-15 21:30:00,
2013-11-15 16:31:00,65.8,59.8,30.15,NW,315,0.0,0.0,81,0.00,CLR,,0.00,WeatherDisplay:10.37,2013-11-15 21:31:00,
2013-11-15 16:32:00,65.8,59.8,30.15,NW,315,0.0,0.0,81,0.00,CLR,,0.00,WeatherDisplay:10.37,2013-11-15 21:32:00,
2013-11-15 16:33:00,65.8,59.8,30.15,NW,315,0.0,0.0,81,0.00,CLR,,0.00,WeatherDisplay:10.37,2013-11-15 21:33:00,
2013-11-15 16:34:00,65.8,59.8,30.15,NW,315,0.0,0.0,81,0.00,CLR,,0.00,WeatherDisplay:10.37,2013-11-15 21:34:00,
2013-11-15 16:35:00,65.8,59.8,30.15,NW,315,0.0,0.0,81,0.00,CLR,,0.00,WeatherDisplay:10.37,2013-11-15 21:35:00,
2013-11-15 16:36:00,65.8,59.8,30.15,NW,315,0.0,0.0,81,0.00,CLR,,0.00,WeatherDisplay:10.37,2013-11-15 21:36:00,
2013-11-15 16:38:00,65.8,59.8,30.15,NW,315,0.0,0.0,81,0.00,CLR,,0.00,WeatherDisplay:10.37,2013-11-15 21:38:00,
2013-11-15 16:39:00,65.8,59.8,30.15,NW,315,0.0,0.0,81,0.00,CLR,,0.00,WeatherDisplay:10.37,2013-11-15 21:39:00,
2013-11-15 16:40:00,65.8,59.8,30.15,NW,315,0.0,0.0,81,0.00,CLR,,0.00,WeatherDisplay:10.37,2013-11-15 21:40:00,
2013-11-15 16:41:00,65.8,60.2,30.15,NW,315,0.0,0.0,82,0.00,CLR,,0.00,WeatherDisplay:10.37,2013-11-15 21:41:00,
2013-11-15 16:43:00,65.8,60.2,30.15,NW,315,0.0,0.0,82,0.00,CLR,,0.00,WeatherDisplay:10.37,2013-11-15 21:43:00,
2013-11-15 16:45:00,65.8,60.2,30.12,NW,315,0.0,0.0,82,0.00,CLR,,0.00,WeatherDisplay:10.37,2013-11-15 21:45:00,
2013-11-15 16:46:00,65.8,60.2,30.12,NW,315,0.0,0.0,82,0.00,CLR,,0.00,WeatherDisplay:10.37,2013-11-15 21:46:00,
2013-11-15 16:48:00,65.7,60.0,30.12,NW,315,0.0,0.0,82,0.00,CLR,,0.00,WeatherDisplay:10.37,2013-11-15 21:48:00,
2013-11-15 16:50:00,65.7,60.0,30.12,NW,315,0.0,0.0,82,0.00,CLR,CLR,0.00,WeatherDisplay:10.37,2013-11-15 21:50:00,
2013-11-15 16:51:00,65.7,60.0,30.12,NW,315,0.0,0.0,82,0.00,CLR,,0.00,WeatherDisplay:10.37,2013-11-15 21:51:00,
2013-11-15 16:52:00,65.7,60.0,30.12,NW,315,0.0,0.0,82,0.00,CLR,,0.00,WeatherDisplay:10.37,2013-11-15 21:52:00,
2013-11-15 16:54:00,65.7,60.0,30.12,NW,315,0.0,0.0,82,0.00,CLR,,0.00,WeatherDisplay:10.37,2013-11-15 21:54:00,
2013-11-15 16:55:00,65.7,60.0,30.12,SE,135,2.4,2.4,82,0.00,CLR,,0.00,WeatherDisplay:10.37,2013-11-15 21:55:00,
2013-11-15 16:56:00,65.7,60.0,30.12,SE,135,2.4,2.4,82,0.00,CLR,,0.00,WeatherDisplay:10.37,2013-11-15 21:56:00,
2013-11-15 16:57:00,65.7,60.0,30.12,SE,135,2.4,2.4,82,0.00,CLR,,0.00,WeatherDisplay:10.37,2013-11-15 21:57:00,
2013-11-15 16:59:00,65.7,60.0,30.12,SE,135,1.6,1.6,82,0.00,CLR,,0.00,WeatherDisplay:10.37,2013-11-15 21:59:00,
2013-11-15 17:01:00,65.7,60.0,30.12,SE,135,2.3,2.3,82,0.00,CLR,,0.00,WeatherDisplay:10.37,2013-11-15 22:01:00,
2013-11-15 17:02:00,65.5,59.8,30.12,SE,135,2.3,2.3,82,0.00,CLR,,0.00,WeatherDisplay:10.37,2013-11-15 22:02:00,
2013-11-15 17:03:00,65.5,59.8,30.12,SE,135,1.6,1.6,82,0.00,CLR,,0.00,WeatherDisplay:10.37,2013-11-15 22:03:00,
2013-11-15 17:04:00,65.5,60.2,30.12,SE,135,1.4,1.6,83,0.00,CLR,,0.00,WeatherDisplay:10.37,2013-11-15 22:04:00,
2013-11-15 17:06:00,65.5,60.2,30.12,SE,135,1.6,1.6,83,0.00,CLR,,0.00,WeatherDisplay:10.37,2013-11-15 22:06:00,
2013-11-15 17:07:00,65.5,60.2,30.12,SE,135,2.4,2.4,83,0.00,CLR,,0.00,WeatherDisplay:10.37,2013-11-15 22:07:00,
2013-11-15 17:08:00,65.5,60.5,30.12,ESE,112,2.6,2.6,84,0.00,CLR,,0.00,WeatherDisplay:10.37,2013-11-15 22:08:00,
2013-11-15 17:09:00,65.5,60.5,30.12,ESE,112,2.4,2.4,84,0.00,CLR,,0.00,WeatherDisplay:10.37,2013-11-15 22:09:00,
2013-11-15 17:11:00,65.5,60.8,30.12,SE,135,4.0,4.0,85,0.00,CLR,,0.00,WeatherDisplay:10.37,2013-11-15 22:11:00,
2013-11-15 17:12:00,65.5,60.8,30.12,ESE,112,3.5,3.5,85,0.00,CLR,,0.00,WeatherDisplay:10.37,2013-11-15 22:12:00,
2013-11-15 17:13:00,65.5,61.2,30.09,ESE,112,3.3,3.8,86,0.00,CLR,,0.00,WeatherDisplay:10.37,2013-11-15 22:13:00,
2013-11-15 17:14:00,65.5,61.2,30.09,ESE,112,3.3,3.8,86,0.00,CLR,,0.00,WeatherDisplay:10.37,2013-11-15 22:14:00,
2013-11-15 17:15:00,65.5,61.5,30.09,SE,135,4.0,4.0,87,0.00,CLR,,0.00,WeatherDisplay:10.37,2013-11-15 22:15:00,
2013-11-15 17:16:00,65.5,61.5,30.09,ESE,112,4.3,4.3,87,0.00,CLR,,0.00,WeatherDisplay:10.37,2013-11-15 22:16:00,
2013-11-15 17:17:00,65.5,61.5,30.09,SE,135,6.9,6.9,87,0.00,CLR,,0.00,WeatherDisplay:10.37,2013-11-15 22:17:00,
2013-11-15 17:18:00,65.5,61.8,30.09,ESE,112,4.6,4.6,88,0.00,CLR,,0.00,WeatherDisplay:10.37,2013-11-15 22:18:00,
2013-11-15 17:19:00,65.5,62.2,30.09,ESE,112,6.0,6.0,89,0.00,CLR,,0.00,WeatherDisplay:10.37,2013-11-15 22:19:00,
2013-11-15 17:21:00,65.5,62.2,30.09,East,90,5.8,5.8,89,0.00,CLR,,0.00,WeatherDisplay:10.37,2013-11-15 22:21:00,
2013-11-15 17:22:00,65.5,62.2,30.09,East,90,1.6,1.6,89,0.00,CLR,,0.00,WeatherDisplay:10.37,2013-11-15 22:22:00,
2013-11-15 17:23:00,65.5,62.2,30.09,East,90,3.8,3.8,89,0.00,CLR,,0.00,WeatherDisplay:10.37,2013-11-15 22:23:00,
2013-11-15 17:24:00,65.5,62.5,30.09,SE,135,5.8,5.8,90,0.00,CLR,,0.00,WeatherDisplay:10.37,2013-11-15 22:24:00,
2013-11-15 17:25:00,65.5,62.5,30.09,ENE,68,4.6,4.6,90,0.00,CLR,,0.00,WeatherDisplay:10.37,2013-11-15 22:25:00,
2013-11-15 17:26:00,65.5,62.5,30.09,ESE,112,3.5,3.5,90,0.00,CLR,,0.00,WeatherDisplay:10.37,2013-11-15 22:26:00,
2013-11-15 17:27:00,65.5,62.5,30.09,ESE,112,4.6,4.6,90,0.00,CLR,,0.00,WeatherDisplay:10.37,2013-11-15 22:27:00,
2013-11-15 17:28:00,65.5,62.5,30.09,SE,135,4.7,4.7,90,0.00,CLR,,0.00,WeatherDisplay:10.37,2013-11-15 22:28:00,
2013-11-15 17:29:00,65.5,62.8,30.09,East,90,3.8,3.8,91,0.00,CLR,,0.00,WeatherDisplay:10.37,2013-11-15 22:29:00,
2013-11-15 17:30:00,65.5,62.8,30.09,ESE,112,4.3,4.3,91,0.00,CLR,,0.00,WeatherDisplay:10.37,2013-11-15 22:30:00,
2013-11-15 17:31:00,65.5,62.8,30.09,SE,135,2.9,3.8,91,0.00,CLR,,0.00,WeatherDisplay:10.37,2013-11-15 22:31:00,
2013-11-15 17:33:00,65.5,62.8,30.09,SE,135,6.9,6.9,91,0.00,CLR,,0.00,WeatherDisplay:10.37,2013-11-15 22:33:00,
2013-11-15 17:34:00,65.5,62.8,30.09,ESE,112,4.0,4.0,91,0.00,CLR,,0.00,WeatherDisplay:10.37,2013-11-15 22:34:00,
2013-11-15 17:35:00,65.3,62.6,30.09,East,90,5.9,5.9,91,0.00,CLR,,0.00,WeatherDisplay:10.37,2013-11-15 22:35:00,
2013-11-15 17:37:00,65.5,62.8,30.09,ESE,112,4.6,4.6,91,0.00,CLR,,0.00,WeatherDisplay:10.37,2013-11-15 22:37:00,
2013-11-15 17:38:00,65.3,62.6,30.09,ESE,112,3.5,3.6,91,0.00,CLR,,0.00,WeatherDisplay:10.37,2013-11-15 22:38:00,
2013-11-15 17:40:00,65.3,62.9,30.09,SE,135,2.4,4.3,92,0.00,CLR,,0.00,WeatherDisplay:10.37,2013-11-15 22:40:00,
2013-11-15 17:41:00,65.3,62.9,30.09,ESE,112,1.6,2.0,92,0.00,CLR,,0.00,WeatherDisplay:10.37,2013-11-15 22:41:00,
2013-11-15 17:43:00,65.3,62.9,30.09,East,90,2.3,2.3,92,0.00,CLR,,0.00,WeatherDisplay:10.37,2013-11-15 22:43:00,
2013-11-15 17:45:00,65.3,62.9,30.09,ESE,112,1.2,1.4,92,0.00,CLR,,0.00,WeatherDisplay:10.37,2013-11-15 22:45:00,
2013-11-15 17:46:00,65.3,62.9,30.09,East,90,2.4,2.4,92,0.00,CLR,,0.00,WeatherDisplay:10.37,2013-11-15 22:46:00,
2013-11-15 17:48:00,65.3,62.9,30.09,East,90,3.5,3.5,92,0.00,CLR,,0.00,WeatherDisplay:10.37,2013-11-15 22:48:00,
2013-11-15 17:49:00,65.1,62.4,30.09,ENE,68,2.0,2.0,91,0.00,CLR,,0.00,WeatherDisplay:10.37,2013-11-15 22:49:00,
2013-11-15 17:50:00,65.1,62.4,30.09,East,90,2.3,2.3,91,0.00,CLR,,0.00,WeatherDisplay:10.37,2013-11-15 22:50:00,
2013-11-15 17:52:00,65.1,62.4,30.09,East,90,2.6,2.9,91,0.00,CLR,,0.00,WeatherDisplay:10.37,2013-11-15 22:52:00,
2013-11-15 17:53:00,65.1,62.4,30.09,East,90,1.2,1.2,91,0.00,CLR,,0.00,WeatherDisplay:10.37,2013-11-15 22:53:00,
2013-11-15 17:54:00,65.1,62.4,30.09,East,90,1.6,2.2,91,0.00,CLR,,0.00,WeatherDisplay:10.37,2013-11-15 22:54:00,
2013-11-15 17:55:00,65.1,62.4,30.09,East,90,1.2,1.4,91,0.00,CLR,,0.00,WeatherDisplay:10.37,2013-11-15 22:55:00,
2013-11-15 17:57:00,65.1,62.4,30.09,East,90,0.0,0.0,91,0.00,CLR,,0.00,WeatherDisplay:10.37,2013-11-15 22:57:00,
2013-11-15 17:58:00,64.9,62.2,30.09,East,90,1.2,0.0,91,0.00,CLR,,0.00,WeatherDisplay:10.37,2013-11-15 22:58:00,
2013-11-15 17:59:00,64.9,62.2,30.09,East,90,1.2,0.0,91,0.00,CLR,,0.00,WeatherDisplay:10.37,2013-11-15 22:59:00,
2013-11-15 18:00:00,64.9,61.9,30.09,SE,135,1.2,0.0,90,0.00,CLR,,0.00,WeatherDisplay:10.37,2013-11-15 23:00:00,
2013-11-15 18:02:00,64.9,61.9,30.09,East,90,1.6,1.6,90,0.00,CLR,,0.00,WeatherDisplay:10.37,2013-11-15 23:02:00,
2013-11-15 18:03:00,64.9,61.9,30.09,East,90,1.2,1.2,90,0.00,CLR,,0.00,WeatherDisplay:10.37,2013-11-15 23:03:00,
2013-11-15 18:04:00,64.9,61.9,30.09,East,90,0.0,0.0,90,0.00,CLR,,0.00,WeatherDisplay:10.37,2013-11-15 23:04:00,
2013-11-15 18:05:00,64.9,61.9,30.09,East,90,0.9,0.9,90,0.00,CLR,,0.00,WeatherDisplay:10.37,2013-11-15 23:05:00,
2013-11-15 18:08:00,64.9,61.9,30.09,ENE,68,2.2,2.2,90,0.00,CLR,,0.00,WeatherDisplay:10.37,2013-11-15 23:08:00,
2013-11-15 18:09:00,64.9,61.9,30.09,ENE,68,2.3,2.3,90,0.00,CLR,,0.00,WeatherDisplay:10.37,2013-11-15 23:09:00,
2013-11-15 18:10:00,64.8,61.8,30.09,ENE,68,1.4,1.4,90,0.00,CLR,,0.00,WeatherDisplay:10.37,2013-11-15 23:10:00,
2013-11-15 18:11:00,64.8,61.8,30.09,East,90,2.6,2.6,90,0.00,CLR,,0.00,WeatherDisplay:10.37,2013-11-15 23:11:00,
2013-11-15 18:14:00,64.8,61.8,30.09,East,90,2.6,2.6,90,0.00,CLR,,0.00,WeatherDisplay:10.37,2013-11-15 23:14:00,
2013-11-15 18:16:00,64.8,61.8,30.09,East,90,2.6,2.6,90,0.00,CLR,,0.00,WeatherDisplay:10.37,2013-11-15 23:16:00,
2013-11-15 18:19:00,64.8,61.8,30.09,East,90,2.4,2.4,90,0.00,CLR,,0.00,WeatherDisplay:10.37,2013-11-15 23:19:00,
2013-11-15 18:20:00,64.8,61.8,30.09,SE,135,2.4,2.4,90,0.00,CLR,,0.00,WeatherDisplay:10.37,2013-11-15 23:20:00,
2013-11-15 18:21:00,64.8,61.8,30.09,ESE,112,3.6,3.6,90,0.00,CLR,,0.00,WeatherDisplay:10.37,2013-11-15 23:21:00,
2013-11-15 18:24:00,64.6,61.6,30.09,ESE,112,3.8,3.8,90,0.00,CLR,,0.00,WeatherDisplay:10.37,2013-11-15 23:24:00,
2013-11-15 18:25:00,64.6,61.6,30.09,East,90,2.4,2.6,90,0.00,CLR,,0.00,WeatherDisplay:10.37,2013-11-15 23:25:00,
2013-11-15 18:26:00,64.6,61.6,30.09,ESE,112,4.6,4.6,90,0.00,CLR,,0.00,WeatherDisplay:10.37,2013-11-15 23:26:00,
2013-11-15 18:29:00,64.6,61.6,30.06,East,90,5.8,5.8,90,0.00,CLR,,0.00,WeatherDisplay:10.37,2013-11-15 23:29:00,
2013-11-15 18:30:00,64.6,61.6,30.06,ESE,112,6.0,6.0,90,0.00,CLR,,0.00,WeatherDisplay:10.37,2013-11-15 23:30:00,
2013-11-15 18:31:00,64.4,61.4,30.06,SE,135,1.6,3.8,90,0.00,CLR,,0.00,WeatherDisplay:10.37,2013-11-15 23:31:00,
2013-11-15 18:32:00,64.4,61.4,30.06,East,90,2.9,2.9,90,0.00,CLR,,0.00,WeatherDisplay:10.37,2013-11-15 23:32:00,
2013-11-15 18:34:00,64.4,61.4,30.06,East,90,3.5,3.5,90,0.00,CLR,,0.00,WeatherDisplay:10.37,2013-11-15 23:34:00,
2013-11-15 18:35:00,64.4,61.4,30.06,ESE,102,3.0,5.0,90,0.00,CLR,CLR,0.00,WeatherDisplay:10.37,2013-11-15 23:35:00,
2013-11-15 18:36:00,64.4,61.4,30.06,ESE,112,3.6,4.0,90,0.00,CLR,,0.00,WeatherDisplay:10.37,2013-11-15 23:36:00,
2013-11-15 18:37:00,64.4,61.4,30.06,ENE,68,3.5,3.6,90,0.00,CLR,,0.00,WeatherDisplay:10.37,2013-11-15 23:37:00,
2013-11-15 18:39:00,64.2,61.2,30.06,ESE,112,3.5,3.5,90,0.00,CLR,,0.00,WeatherDisplay:10.37,2013-11-15 23:39:00,
2013-11-15 18:40:00,64.2,61.2,30.06,East,90,3.1,3.1,90,0.00,CLR,,0.00,WeatherDisplay:10.37,2013-11-15 23:40:00,
2013-11-15 18:41:00,64.2,61.2,30.06,East,90,3.5,3.5,90,0.00,CLR,,0.00,WeatherDisplay:10.37,2013-11-15 23:41:00,
2013-11-15 18:42:00,64.2,61.2,30.06,ESE,112,6.7,6.7,90,0.00,CLR,,0.00,WeatherDisplay:10.37,2013-11-15 23:42:00,
2013-11-15 18:44:00,64.2,61.2,30.09,ESE,112,2.3,4.0,90,0.00,CLR,,0.00,WeatherDisplay:10.37,2013-11-15 23:44:00,
2013-11-15 18:45:00,64.2,61.2,30.09,ENE,68,2.3,2.4,90,0.00,CLR,,0.00,WeatherDisplay:10.37,2013-11-15 23:45:00,
2013-11-15 18:46:00,64.2,61.2,30.09,ENE,68,2.3,2.3,90,0.00,CLR,,0.00,WeatherDisplay:10.37,2013-11-15 23:46:00,
2013-11-15 18:47:00,64.2,61.2,30.09,East,90,3.3,3.3,90,0.00,CLR,,0.00,WeatherDisplay:10.37,2013-11-15 23:47:00,
2013-11-15 18:50:00,64.2,61.2,30.09,East,101,2.0,6.0,90,0.00,CLR,CLR,0.00,WeatherDisplay:10.37,2013-11-15 23:50:00,
2013-11-15 18:51:00,64.2,61.2,30.09,East,90,4.6,4.7,90,0.00,CLR,,0.00,WeatherDisplay:10.37,2013-11-15 23:51:00,
2013-11-15 18:52:00,64.0,60.7,30.09,ESE,112,3.5,4.7,89,0.00,CLR,,0.00,WeatherDisplay:10.37,2013-11-15 23:52:00,
2013-11-15 18:55:00,64.0,60.7,30.09,East,90,3.5,3.6,89,0.00,CLR,,0.00,WeatherDisplay:10.37,2013-11-15 23:55:00,
2013-11-15 18:56:00,64.0,60.7,30.09,East,90,3.5,3.6,89,0.00,CLR,,0.00,WeatherDisplay:10.37,2013-11-15 23:56:00,
2013-11-15 18:57:00,64.0,60.7,30.09,SE,135,3.5,3.6,89,0.00,CLR,,0.00,WeatherDisplay:10.37,2013-11-15 23:57:00,
2013-11-15 18:58:00,64.0,60.7,30.09,East,90,2.6,2.9,89,0.00,CLR,,0.00,WeatherDisplay:10.37,2013-11-15 23:58:00,
2013-11-15 19:00:00,64.0,60.7,30.06,East,90,4.3,4.3,89,0.00,CLR,,0.00,WeatherDisplay:10.37,2013-11-16 00:00:00,
2013-11-15 19:01:00,64.0,60.7,30.06,ESE,112,3.6,3.6,89,0.00,CLR,,0.00,WeatherDisplay:10.37,2013-11-16 00:01:00,
2013-11-15 19:02:00,63.9,60.6,30.06,ESE,112,4.3,4.7,89,0.00,CLR,,0.00,WeatherDisplay:10.37,2013-11-16 00:02:00,
2013-11-15 19:03:00,63.9,60.6,30.06,SE,135,4.3,4.3,89,0.00,CLR,,0.00,WeatherDisplay:10.37,2013-11-16 00:03:00,
2013-11-15 19:05:00,63.9,60.6,30.06,ESE,112,3.1,3.1,89,0.00,CLR,,0.00,WeatherDisplay:10.37,2013-11-16 00:05:00,
2013-11-15 19:06:00,63.9,60.6,30.06,ESE,112,3.5,3.5,89,0.00,CLR,,0.00,WeatherDisplay:10.37,2013-11-16 00:06:00,
2013-11-15 19:07:00,63.9,60.6,30.06,East,90,4.7,4.7,89,0.00,CLR,,0.00,WeatherDisplay:10.37,2013-11-16 00:07:00,
2013-11-15 19:08:00,63.9,60.6,30.06,East,90,5.8,5.8,89,0.00,CLR,,0.00,WeatherDisplay:10.37,2013-11-16 00:08:00,
2013-11-15 19:10:00,63.9,60.6,30.06,East,90,4.6,4.6,89,0.00,CLR,,0.00,WeatherDisplay:10.37,2013-11-16 00:10:00,
2013-11-15 19:11:00,63.9,60.6,30.06,East,90,4.6,4.6,89,0.00,CLR,,0.00,WeatherDisplay:10.37,2013-11-16 00:11:00,
2013-11-15 19:12:00,63.9,60.6,30.06,East,90,4.6,4.6,89,0.00,CLR,,0.00,WeatherDisplay:10.37,2013-11-16 00:12:00,
2013-11-15 19:13:00,63.9,60.6,30.06,SE,135,5.8,5.8,89,0.00,CLR,,0.00,WeatherDisplay:10.37,2013-11-16 00:13:00,
2013-11-15 19:15:00,63.9,60.6,30.09,ESE,112,4.6,4.6,89,0.00,CLR,,0.00,WeatherDisplay:10.37,2013-11-16 00:15:00,
2013-11-15 19:16:00,63.9,60.6,30.09,ESE,112,4.6,4.6,89,0.00,CLR,,0.00,WeatherDisplay:10.37,2013-11-16 00:16:00,
2013-11-15 19:17:00,63.9,60.6,30.09,SE,135,3.5,3.5,89,0.00,CLR,,0.00,WeatherDisplay:10.37,2013-11-16 00:17:00,
2013-11-15 19:18:00,63.9,60.6,30.09,ESE,112,3.3,3.3,89,0.00,CLR,,0.00,WeatherDisplay:10.37,2013-11-16 00:18:00,
2013-11-15 19:20:00,63.9,60.6,30.09,ESE,112,2.6,3.1,89,0.00,CLR,,0.00,WeatherDisplay:10.37,2013-11-16 00:20:00,
2013-11-15 19:21:00,63.9,60.6,30.09,SE,135,4.0,4.3,89,0.00,CLR,,0.00,WeatherDisplay:10.37,2013-11-16 00:21:00,
2013-11-15 19:22:00,63.9,60.6,30.09,SE,135,4.5,4.5,89,0.00,CLR,,0.00,WeatherDisplay:10.37,2013-11-16 00:22:00,
2013-11-15 19:23:00,63.9,60.9,30.09,East,90,4.6,4.9,90,0.00,CLR,,0.00,WeatherDisplay:10.37,2013-11-16 00:23:00,
2013-11-15 19:25:00,63.9,60.9,30.09,SE,135,4.6,4.6,90,0.00,CLR,,0.00,WeatherDisplay:10.37,2013-11-16 00:25:00,
2013-11-15 19:26:00,63.9,60.9,30.09,SE,135,5.8,5.8,90,0.00,CLR,,0.00,WeatherDisplay:10.37,2013-11-16 00:26:00,
2013-11-15 19:27:00,63.9,60.9,30.09,SE,135,4.6,4.9,90,0.00,CLR,,0.00,WeatherDisplay:10.37,2013-11-16 00:27:00,
2013-11-15 19:29:00,63.9,60.9,30.06,SE,135,6.4,6.4,90,0.00,CLR,,0.00,WeatherDisplay:10.37,2013-11-16 00:29:00,
2013-11-15 19:30:00,63.9,60.9,30.06,SE,135,10.4,10.4,90,0.00,CLR,,0.00,WeatherDisplay:10.37,2013-11-16 00:30:00,
2013-11-15 19:31:00,63.9,61.2,30.06,ESE,112,4.3,4.3,91,0.00,CLR,,0.00,WeatherDisplay:10.37,2013-11-16 00:31:00,
2013-11-15 19:32:00,63.9,61.2,30.06,SE,135,4.6,4.6,91,0.00,CLR,,0.00,WeatherDisplay:10.37,2013-11-16 00:32:00,
2013-11-15 19:34:00,63.9,61.2,30.06,ESE,112,5.8,5.8,91,0.00,CLR,,0.00,WeatherDisplay:10.37,2013-11-16 00:34:00,
2013-11-15 19:35:00,63.9,61.2,30.06,ESE,112,3.6,3.6,91,0.00,CLR,,0.00,WeatherDisplay:10.37,2013-11-16 00:35:00,
2013-11-15 19:36:00,63.9,61.2,30.06,ESE,112,3.6,4.3,91,0.00,CLR,,0.00,WeatherDisplay:10.37,2013-11-16 00:36:00,
2013-11-15 19:37:00,63.9,61.2,30.06,East,90,3.5,3.8,91,0.00,CLR,,0.00,WeatherDisplay:10.37,2013-11-16 00:37:00,
2013-11-15 19:39:00,63.9,61.2,30.06,ESE,112,4.3,4.3,91,0.00,CLR,,0.00,WeatherDisplay:10.37,2013-11-16 00:39:00,
2013-11-15 19:40:00,63.9,61.2,30.06,ESE,112,3.5,3.5,91,0.00,CLR,,0.00,WeatherDisplay:10.37,2013-11-16 00:40:00,
2013-11-15 19:41:00,63.9,61.2,30.06,ESE,112,0.0,2.4,91,0.00,CLR,,0.00,WeatherDisplay:10.37,2013-11-16 00:41:00,
2013-11-15 19:42:00,63.9,61.2,30.06,ENE,68,2.9,2.9,91,0.00,CLR,,0.00,WeatherDisplay:10.37,2013-11-16 00:42:00,
2013-11-15 19:43:00,63.9,61.2,30.06,SE,135,2.4,2.4,91,0.00,CLR,,0.00,WeatherDisplay:10.37,2013-11-16 00:43:00,
2013-11-15 19:44:00,63.9,61.2,30.09,ESE,112,3.8,3.8,91,0.00,CLR,,0.00,WeatherDisplay:10.37,2013-11-16 00:44:00,
2013-11-15 19:45:00,63.9,61.2,30.09,East,93,3.0,6.0,91,0.00,CLR,CLR,0.00,WeatherDisplay:10.37,2013-11-16 00:45:00,
2013-11-15 19:46:00,63.9,61.2,30.09,East,90,1.4,2.4,91,0.00,CLR,,0.00,WeatherDisplay:10.37,2013-11-16 00:46:00,
2013-11-15 19:47:00,63.9,61.2,30.09,East,90,4.3,4.3,91,0.00,CLR,,0.00,WeatherDisplay:10.37,2013-11-16 00:47:00,
2013-11-15 19:48:00,63.9,61.2,30.09,East,90,2.9,2.9,91,0.00,CLR,,0.00,WeatherDisplay:10.37,2013-11-16 00:48:00,
2013-11-15 19:49:00,63.9,61.2,30.09,ESE,112,3.1,3.1,91,0.00,CLR,,0.00,WeatherDisplay:10.37,2013-11-16 00:49:00,
2013-11-15 19:50:00,63.9,61.2,30.09,East,90,3.1,3.1,91,0.00,CLR,,0.00,WeatherDisplay:10.37,2013-11-16 00:50:00,
2013-11-15 19:51:00,63.9,61.2,30.09,ESE,112,6.2,6.2,91,0.00,CLR,,0.00,WeatherDisplay:10.37,2013-11-16 00:51:00,
2013-11-15 19:52:00,63.9,61.2,30.09,ESE,112,5.8,5.8,91,0.00,CLR,,0.00,WeatherDisplay:10.37,2013-11-16 00:52:00,
2013-11-15 19:53:00,63.9,61.5,30.09,ESE,112,3.5,3.5,92,0.00,CLR,,0.00,WeatherDisplay:10.37,2013-11-16 00:53:00,
2013-11-15 19:54:00,63.9,61.5,30.09,ESE,112,6.2,6.2,92,0.00,CLR,,0.00,WeatherDisplay:10.37,2013-11-16 00:54:00,
2013-11-15 19:55:00,63.9,61.5,30.09,SE,135,7.6,7.6,92,0.00,CLR,,0.00,WeatherDisplay:10.37,2013-11-16 00:55:00,
2013-11-15 19:57:00,63.9,61.5,30.09,SSE,158,7.1,7.1,92,0.00,CLR,,0.00,WeatherDisplay:10.37,2013-11-16 00:57:00,
2013-11-15 19:58:00,63.9,61.5,30.09,SE,135,4.6,4.7,92,0.00,CLR,,0.00,WeatherDisplay:10.37,2013-11-16 00:58:00,
2013-11-15 20:00:00,63.9,61.5,30.06,ESE,112,1.2,0.0,92,0.00,CLR,,0.00,WeatherDisplay:10.37,2013-11-16 01:00:00,
2013-11-15 20:02:00,63.9,61.5,30.06,ESE,112,2.9,2.9,92,0.00,CLR,,0.00,WeatherDisplay:10.37,2013-11-16 01:02:00,
2013-11-15 20:03:00,63.9,61.5,30.06,SE,135,4.6,4.6,92,0.00,CLR,,0.00,WeatherDisplay:10.37,2013-11-16 01:03:00,
2013-11-15 20:05:00,64.0,62.0,30.06,SE,135,4.6,4.6,93,0.00,CLR,,0.00,WeatherDisplay:10.37,2013-11-16 01:05:00,
2013-11-15 20:06:00,64.0,62.0,30.06,SE,135,2.9,2.9,93,0.00,CLR,,0.00,WeatherDisplay:10.37,2013-11-16 01:06:00,
2013-11-15 20:07:00,64.0,62.0,30.06,NE,45,5.8,5.8,93,0.00,CLR,,0.00,WeatherDisplay:10.37,2013-11-16 01:07:00,
2013-11-15 20:08:00,64.0,62.0,30.06,ESE,112,2.9,2.9,93,0.00,CLR,,0.00,WeatherDisplay:10.37,2013-11-16 01:08:00,
2013-11-15 20:09:00,64.0,62.0,30.06,East,90,2.9,2.9,93,0.00,CLR,,0.00,WeatherDisplay:10.37,2013-11-16 01:09:00,
2013-11-15 20:11:00,64.0,62.0,30.06,East,90,5.8,5.8,93,0.00,CLR,,0.00,WeatherDisplay:10.37,2013-11-16 01:11:00,
2013-11-15 20:12:00,64.0,62.0,30.06,NNW,338,2.3,2.6,93,0.00,CLR,,0.00,WeatherDisplay:10.37,2013-11-16 01:12:00,
2013-11-15 20:13:00,64.0,62.0,30.06,East,90,0.0,2.6,93,0.00,CLR,,0.00,WeatherDisplay:10.37,2013-11-16 01:13:00,
2013-11-15 20:14:00,64.0,62.0,30.06,NE,45,2.3,2.3,93,0.00,CLR,,0.00,WeatherDisplay:10.37,2013-11-16 01:14:00,
2013-11-15 20:17:00,64.0,62.0,30.06,NNE,22,0.0,0.0,93,0.00,CLR,,0.00,WeatherDisplay:10.37,2013-11-16 01:17:00,
2013-11-15 20:18:00,63.9,61.5,30.06,North,0,1.6,1.6,92,0.00,CLR,,0.00,WeatherDisplay:10.37,2013-11-16 01:18:00,
2013-11-15 20:19:00,63.9,61.5,30.06,North,0,2.0,2.0,92,0.00,CLR,,0.00,WeatherDisplay:10.37,2013-11-16 01:19:00,
2013-11-15 20:22:00,64.0,61.7,30.06,North,0,3.5,3.5,92,0.00,CLR,,0.00,WeatherDisplay:10.37,2013-11-16 01:22:00,
2013-11-15 20:23:00,64.0,61.7,30.06,North,0,3.5,3.5,92,0.00,CLR,,0.00,WeatherDisplay:10.37,2013-11-16 01:23:00,
2013-11-15 20:24:00,64.0,61.7,30.06,NNE,22,3.6,3.6,92,0.00,CLR,,0.00,WeatherDisplay:10.37,2013-11-16 01:24:00,
2013-11-15 20:25:00,64.0,62.0,30.06,North,0,3.6,3.6,93,0.00,CLR,,0.00,WeatherDisplay:10.37,2013-11-16 01:25:00,
2013-11-15 20:27:00,64.0,62.0,30.06,NNW,338,3.5,3.5,93,0.00,CLR,,0.00,WeatherDisplay:10.37,2013-11-16 01:27:00,
2013-11-15 20:28:00,64.0,62.0,30.06,NNW,338,3.6,3.6,93,0.00,CLR,,0.00,WeatherDisplay:10.37,2013-11-16 01:28:00,
2013-11-15 20:29:00,64.0,62.0,30.09,NW,315,5.8,5.8,93,0.00,CLR,,0.00,WeatherDisplay:10.37,2013-11-16 01:29:00,
2013-11-15 20:30:00,64.2,62.2,30.09,NNW,338,6.2,6.2,93,0.00,CLR,,0.00,WeatherDisplay:10.37,2013-11-16 01:30:00,
2013-11-15 20:32:00,64.0,62.0,30.09,NW,315,3.5,3.5,93,0.00,CLR,,0.00,WeatherDisplay:10.37,2013-11-16 01:32:00,
2013-11-15 20:33:00,64.0,62.0,30.09,NW,315,8.5,8.5,93,0.00,CLR,,0.00,WeatherDisplay:10.37,2013-11-16 01:33:00,
2013-11-15 20:34:00,64.2,62.2,30.09,NW,315,8.1,8.1,93,0.00,CLR,,0.00,WeatherDisplay:10.37,2013-11-16 01:34:00,
2013-11-15 20:35:00,64.2,62.2,30.09,NNW,338,5.8,7.4,93,0.00,CLR,,0.00,WeatherDisplay:10.37,2013-11-16 01:35:00,
2013-11-15 20:37:00,64.2,62.5,30.09,North,0,10.0,10.0,94,0.00,CLR,,0.00,WeatherDisplay:10.37,2013-11-16 01:37:00,
2013-11-15 20:38:00,64.2,62.5,30.09,North,0,8.7,8.7,94,0.00,CLR,,0.00,WeatherDisplay:10.37,2013-11-16 01:38:00,
2013-11-15 20:39:00,64.2,62.5,30.09,North,0,8.7,8.7,94,0.00,CLR,,0.00,WeatherDisplay:10.37,2013-11-16 01:39:00,
2013-11-15 20:40:00,64.2,62.5,30.09,NNW,338,7.1,7.1,94,0.00,CLR,,0.00,WeatherDisplay:10.37,2013-11-16 01:40:00,
2013-11-15 20:41:00,64.2,62.5,30.09,North,0,5.8,5.8,94,0.00,CLR,,0.00,WeatherDisplay:10.37,2013-11-16 01:41:00,
2013-11-15 20:42:00,64.0,62.3,30.09,North,0,7.4,7.4,94,0.00,CLR,,0.00,WeatherDisplay:10.37,2013-11-16 01:42:00,
2013-11-15 20:44:00,64.2,62.5,30.09,North,0,6.2,6.4,94,0.00,CLR,,0.00,WeatherDisplay:10.37,2013-11-16 01:44:00,
2013-11-15 20:45:00,64.2,62.5,30.09,NNW,338,6.2,6.2,94,0.00,CLR,,0.00,WeatherDisplay:10.37,2013-11-16 01:45:00,
2013-11-15 20:46:00,64.0,62.6,30.09,NW,315,4.6,4.6,95,0.00,CLR,,0.00,WeatherDisplay:10.37,2013-11-16 01:46:00,
2013-11-15 20:47:00,64.0,62.6,30.09,West,270,4.6,4.6,95,0.00,CLR,,0.00,WeatherDisplay:10.37,2013-11-16 01:47:00,
2013-11-15 20:49:00,64.0,62.6,30.09,North,0,3.8,3.8,95,0.00,CLR,,0.00,WeatherDisplay:10.37,2013-11-16 01:49:00,
2013-11-15 20:50:00,64.0,62.6,30.09,NNE,22,4.6,4.6,95,0.00,CLR,,0.00,WeatherDisplay:10.37,2013-11-16 01:50:00,
2013-11-15 20:52:00,64.0,62.3,30.09,North,0,2.6,3.3,94,0.00,CLR,,0.00,WeatherDisplay:10.37,2013-11-16 01:52:00,
2013-11-15 20:54:00,64.0,62.3,30.09,North,0,3.8,3.8,94,0.00,CLR,,0.00,WeatherDisplay:10.37,2013-11-16 01:54:00,
2013-11-15 20:55:00,64.0,62.3,30.09,NW,315,3.5,3.6,94,0.00,CLR,,0.00,WeatherDisplay:10.37,2013-11-16 01:55:00,
2013-11-15 20:57:00,64.0,62.3,30.09,NNW,338,3.8,4.0,94,0.00,CLR,,0.00,WeatherDisplay:10.37,2013-11-16 01:57:00,
2013-11-15 20:59:00,64.0,62.3,30.12,NNE,22,3.5,3.5,94,0.00,CLR,,0.00,WeatherDisplay:10.37,2013-11-16 01:59:00,
2013-11-15 21:00:00,64.0,62.3,30.12,NNW,338,2.2,2.9,94,0.00,CLR,,0.00,WeatherDisplay:10.37,2013-11-16 02:00:00,
2013-11-15 21:01:00,64.0,62.3,30.12,North,0,4.6,4.6,94,0.00,CLR,,0.00,WeatherDisplay:10.37,2013-11-16 02:01:00,
2013-11-15 21:02:00,64.0,62.3,30.12,WNW,292,3.5,3.5,94,0.00,CLR,,0.00,WeatherDisplay:10.37,2013-11-16 02:02:00,
2013-11-15 21:04:00,63.9,62.1,30.12,NNW,338,3.5,3.5,94,0.00,CLR,,0.00,WeatherDisplay:10.37,2013-11-16 02:04:00,
2013-11-15 21:05:00,63.9,62.1,30.12,NNW,338,3.5,3.5,94,0.00,CLR,,0.00,WeatherDisplay:10.37,2013-11-16 02:05:00,
2013-11-15 21:06:00,63.9,62.1,30.12,East,90,2.4,3.8,94,0.00,CLR,,0.00,WeatherDisplay:10.37,2013-11-16 02:06:00,
2013-11-15 21:07:00,63.9,62.1,30.12,ESE,112,2.3,2.3,94,0.00,CLR,,0.00,WeatherDisplay:10.37,2013-11-16 02:07:00,
2013-11-15 21:10:00,63.9,61.8,30.12,SE,135,2.4,2.4,93,0.00,CLR,,0.00,WeatherDisplay:10.37,2013-11-16 02:10:00,
2013-11-15 21:11:00,63.9,61.8,30.12,ESE,112,2.6,2.6,93,0.00,CLR,,0.00,WeatherDisplay:10.37,2013-11-16 02:11:00,
2013-11-15 21:13:00,63.9,61.8,30.12,ESE,112,1.2,2.2,93,0.00,CLR,,0.00,WeatherDisplay:10.37,2013-11-16 02:13:00,
2013-11-15 21:15:00,63.9,61.8,30.09,ESE,112,2.3,2.3,93,0.00,CLR,,0.00,WeatherDisplay:10.37,2013-11-16 02:15:00,
2013-11-15 21:17:00,63.7,61.6,30.09,ESE,112,0.0,0.0,93,0.00,CLR,,0.00,WeatherDisplay:10.37,2013-11-16 02:17:00,
2013-11-15 21:18:00,63.7,61.6,30.09,ESE,112,0.0,0.0,93,0.00,CLR,,0.00,WeatherDisplay:10.37,2013-11-16 02:18:00,
2013-11-15 21:20:00,63.7,61.6,30.09,ESE,112,1.2,1.2,93,0.00,CLR,,0.00,WeatherDisplay:10.37,2013-11-16 02:20:00,
2013-11-15 21:21:00,63.7,61.6,30.09,ESE,112,0.0,0.9,93,0.00,CLR,,0.00,WeatherDisplay:10.37,2013-11-16 02:21:00,
2013-11-15 21:22:00,63.7,61.6,30.09,ESE,112,0.0,0.0,93,0.00,CLR,,0.00,WeatherDisplay:10.37,2013-11-16 02:22:00,
2013-11-15 21:23:00,63.5,61.4,30.09,ESE,112,0.0,0.0,93,0.00,CLR,,0.00,WeatherDisplay:10.37,2013-11-16 02:23:00,
2013-11-15 21:24:00,63.5,61.1,30.09,ESE,112,0.0,0.0,92,0.00,CLR,,0.00,WeatherDisplay:10.37,2013-11-16 02:24:00,
2013-11-15 21:25:00,63.5,61.1,30.09,ESE,112,0.0,0.0,92,0.00,CLR,,0.00,WeatherDisplay:10.37,2013-11-16 02:25:00,
2013-11-15 21:26:00,63.5,61.1,30.09,ESE,112,0.0,0.0,92,0.00,CLR,,0.00,WeatherDisplay:10.37,2013-11-16 02:26:00,
2013-11-15 21:27:00,63.5,61.1,30.09,ESE,112,0.0,0.0,92,0.00,CLR,,0.00,WeatherDisplay:10.37,2013-11-16 02:27:00,
2013-11-15 21:28:00,63.3,61.0,30.09,ESE,112,0.0,0.0,92,0.00,CLR,,0.00,WeatherDisplay:10.37,2013-11-16 02:28:00,
2013-11-15 21:29:00,63.3,61.0,30.12,ESE,112,0.0,0.0,92,0.00,CLR,,0.00,WeatherDisplay:10.37,2013-11-16 02:29:00,
2013-11-15 21:31:00,63.3,61.0,30.12,ESE,112,0.0,0.0,92,0.00,CLR,,0.00,WeatherDisplay:10.37,2013-11-16 02:31:00,
2013-11-15 21:32:00,63.1,60.8,30.12,ESE,112,0.0,0.0,92,0.00,CLR,,0.00,WeatherDisplay:10.37,2013-11-16 02:32:00,
2013-11-15 21:34:00,63.1,60.8,30.12,ESE,112,0.0,0.0,92,0.00,CLR,,0.00,WeatherDisplay:10.37,2013-11-16 02:34:00,
2013-11-15 21:36:00,63.1,60.8,30.12,ESE,112,0.0,0.0,92,0.00,CLR,,0.00,WeatherDisplay:10.37,2013-11-16 02:36:00,
2013-11-15 21:38:00,63.0,60.3,30.12,ESE,112,0.0,0.0,91,0.00,CLR,,0.00,WeatherDisplay:10.37,2013-11-16 02:38:00,
2013-11-15 21:39:00,63.0,60.3,30.12,ESE,112,0.0,0.0,91,0.00,CLR,,0.00,WeatherDisplay:10.37,2013-11-16 02:39:00,
2013-11-15 21:41:00,63.0,60.3,30.12,ESE,112,0.0,0.0,91,0.00,CLR,,0.00,WeatherDisplay:10.37,2013-11-16 02:41:00,
2013-11-15 21:43:00,63.0,60.3,30.12,ESE,112,0.0,0.0,91,0.00,CLR,,0.00,WeatherDisplay:10.37,2013-11-16 02:43:00,
2013-11-15 21:44:00,63.0,60.3,30.09,ESE,112,0.0,0.0,91,0.00,CLR,,0.00,WeatherDisplay:10.37,2013-11-16 02:44:00,
2013-11-15 21:46:00,62.8,60.1,30.09,ESE,112,0.0,0.0,91,0.00,CLR,,0.00,WeatherDisplay:10.37,2013-11-16 02:46:00,
2013-11-15 21:48:00,62.6,59.9,30.09,ESE,112,0.0,0.0,91,0.00,CLR,,0.00,WeatherDisplay:10.37,2013-11-16 02:48:00,
2013-11-15 21:49:00,62.6,59.9,30.09,ESE,112,0.0,0.0,91,0.00,CLR,,0.00,WeatherDisplay:10.37,2013-11-16 02:49:00,
2013-11-15 21:51:00,62.4,59.8,30.09,ESE,112,1.2,1.2,91,0.00,CLR,,0.00,WeatherDisplay:10.37,2013-11-16 02:51:00,
2013-11-15 21:52:00,62.4,59.8,30.09,ESE,112,0.0,0.0,91,0.00,CLR,,0.00,WeatherDisplay:10.37,2013-11-16 02:52:00,
2013-11-15 21:53:00,62.4,59.8,30.09,ESE,112,0.0,0.0,91,0.00,CLR,,0.00,WeatherDisplay:10.37,2013-11-16 02:53:00,
2013-11-15 21:54:00,62.4,59.8,30.09,ESE,112,0.0,0.0,91,0.00,CLR,,0.00,WeatherDisplay:10.37,2013-11-16 02:54:00,
2013-11-15 21:56:00,62.2,59.6,30.09,ESE,112,0.0,0.0,91,0.00,CLR,,0.00,WeatherDisplay:10.37,2013-11-16 02:56:00,
2013-11-15 21:57:00,62.2,59.6,30.09,ESE,112,0.0,0.0,91,0.00,CLR,,0.00,WeatherDisplay:10.37,2013-11-16 02:57:00,
2013-11-15 21:58:00,62.2,59.6,30.12,ESE,112,0.0,0.0,91,0.00,CLR,,0.00,WeatherDisplay:10.37,2013-11-16 02:58:00,
2013-11-15 22:00:00,62.2,59.6,30.12,ESE,112,0.0,0.0,91,0.00,CLR,,0.00,WeatherDisplay:10.37,2013-11-16 03:00:00,
2013-11-15 22:01:00,62.2,59.6,30.12,ESE,112,0.0,0.0,91,0.00,CLR,,0.00,WeatherDisplay:10.37,2013-11-16 03:01:00,
2013-11-15 22:03:00,62.1,59.4,30.12,ESE,112,0.0,0.0,91,0.00,CLR,,0.00,WeatherDisplay:10.37,2013-11-16 03:03:00,
2013-11-15 22:04:00,62.1,59.4,30.12,ESE,112,0.0,0.0,91,0.00,CLR,,0.00,WeatherDisplay:10.37,2013-11-16 03:04:00,
2013-11-15 22:05:00,62.1,59.4,30.12,ESE,112,0.0,0.0,91,0.00,CLR,,0.00,WeatherDisplay:10.37,2013-11-16 03:05:00,
2013-11-15 22:07:00,62.1,59.4,30.12,ESE,112,0.0,0.0,91,0.00,CLR,,0.00,WeatherDisplay:10.37,2013-11-16 03:07:00,
2013-11-15 22:08:00,62.1,59.4,30.12,ESE,112,0.0,0.0,91,0.00,CLR,,0.00,WeatherDisplay:10.37,2013-11-16 03:08:00,
2013-11-15 22:09:00,62.1,59.4,30.12,ESE,112,0.0,0.0,91,0.00,CLR,,0.00,WeatherDisplay:10.37,2013-11-16 03:09:00,
2013-11-15 22:10:00,62.1,59.4,30.12,ESE,112,0.0,0.0,91,0.00,CLR,,0.00,WeatherDisplay:10.37,2013-11-16 03:10:00,
2013-11-15 22:12:00,62.1,59.4,30.12,ESE,112,1.4,0.0,91,0.00,CLR,,0.00,WeatherDisplay:10.37,2013-11-16 03:12:00,
2013-11-15 22:13:00,62.1,59.4,30.12,ESE,112,1.4,1.4,91,0.00,CLR,,0.00,WeatherDisplay:10.37,2013-11-16 03:13:00,
2013-11-15 22:14:00,62.1,59.7,30.15,ESE,112,1.2,1.4,92,0.00,CLR,,0.00,WeatherDisplay:10.37,2013-11-16 03:14:00,
2013-11-15 22:15:00,62.1,59.7,30.15,ESE,112,2.0,2.0,92,0.00,CLR,,0.00,WeatherDisplay:10.37,2013-11-16 03:15:00,
2013-11-15 22:16:00,62.1,59.7,30.15,ESE,112,1.2,1.2,92,0.00,CLR,,0.00,WeatherDisplay:10.37,2013-11-16 03:16:00,
2013-11-15 22:17:00,61.9,59.5,30.15,ESE,112,0.0,0.0,92,0.00,CLR,,0.00,WeatherDisplay:10.37,2013-11-16 03:17:00,
2013-11-15 22:19:00,61.9,59.5,30.15,ESE,112,0.0,0.0,92,0.00,CLR,,0.00,WeatherDisplay:10.37,2013-11-16 03:19:00,
2013-11-15 22:20:00,61.9,59.5,30.15,ESE,112,0.0,0.0,92,0.00,CLR,,0.00,WeatherDisplay:10.37,2013-11-16 03:20:00,
2013-11-15 22:21:00,61.9,59.5,30.15,ESE,112,0.0,0.0,92,0.00,CLR,,0.00,WeatherDisplay:10.37,2013-11-16 03:21:00,
2013-11-15 22:23:00,61.9,59.5,30.15,ESE,112,2.3,0.0,92,0.00,CLR,,0.00,WeatherDisplay:10.37,2013-11-16 03:23:00,
2013-11-15 22:24:00,61.9,59.5,30.15,ESE,112,2.0,2.0,92,0.00,CLR,,0.00,WeatherDisplay:10.37,2013-11-16 03:24:00,
2013-11-15 22:25:00,61.9,59.5,30.15,ESE,112,1.0,2.0,92,0.00,CLR,CLR,0.00,WeatherDisplay:10.37,2013-11-16 03:25:00,
2013-11-15 22:26:00,61.9,59.5,30.15,North,0,2.6,2.6,92,0.00,CLR,,0.00,WeatherDisplay:10.37,2013-11-16 03:26:00,
2013-11-15 22:28:00,61.9,59.5,30.15,North,0,1.6,2.2,92,0.00,CLR,,0.00,WeatherDisplay:10.37,2013-11-16 03:28:00,
2013-11-15 22:29:00,61.9,59.5,30.15,NNW,338,2.0,2.0,92,0.00,CLR,,0.00,WeatherDisplay:10.37,2013-11-16 03:29:00,
2013-11-15 22:30:00,61.9,59.8,30.15,NNW,338,2.3,2.3,93,0.00,CLR,,0.00,WeatherDisplay:10.37,2013-11-16 03:30:00,
2013-11-15 22:31:00,61.9,59.8,30.15,NNE,22,2.3,2.3,93,0.00,CLR,,0.00,WeatherDisplay:10.37,2013-11-16 03:31:00,
2013-11-15 22:32:00,61.9,59.8,30.15,North,0,1.2,1.2,93,0.00,CLR,,0.00,WeatherDisplay:10.37,2013-11-16 03:32:00,
2013-11-15 22:33:00,61.9,59.8,30.15,North,0,1.2,0.0,93,0.00,CLR,,0.00,WeatherDisplay:10.37,2013-11-16 03:33:00,
2013-11-15 22:34:00,61.9,59.8,30.15,North,0,0.0,0.0,93,0.00,CLR,,0.00,WeatherDisplay:10.37,2013-11-16 03:34:00,
2013-11-15 22:35:00,61.9,59.5,30.15,NNE,22,2.2,0.0,92,0.00,CLR,,0.00,WeatherDisplay:10.37,2013-11-16 03:35:00,
2013-11-15 22:36:00,61.9,59.5,30.15,North,0,2.3,0.0,92,0.00,CLR,,0.00,WeatherDisplay:10.37,2013-11-16 03:36:00,
2013-11-15 22:37:00,61.9,59.8,30.15,NNE,22,0.0,0.0,93,0.00,CLR,,0.00,WeatherDisplay:10.37,2013-11-16 03:37:00,
2013-11-15 22:38:00,61.9,59.8,30.15,NNE,22,0.0,0.0,93,0.00,CLR,,0.00,WeatherDisplay:10.37,2013-11-16 03:38:00,
2013-11-15 22:40:00,61.9,59.8,30.15,NNE,22,2.3,0.0,93,0.00,CLR,,0.00,WeatherDisplay:10.37,2013-11-16 03:40:00,
2013-11-15 22:41:00,61.9,59.8,30.15,North,0,1.2,1.2,93,0.00,CLR,,0.00,WeatherDisplay:10.37,2013-11-16 03:41:00,
2013-11-15 22:42:00,61.9,59.8,30.15,North,0,2.3,2.3,93,0.00,CLR,,0.00,WeatherDisplay:10.37,2013-11-16 03:42:00,
2013-11-15 22:43:00,61.9,59.8,30.15,NNE,22,2.3,2.3,93,0.00,CLR,,0.00,WeatherDisplay:10.37,2013-11-16 03:43:00,
2013-11-15 22:45:00,61.9,59.8,30.15,North,0,2.6,2.6,93,0.00,CLR,,0.00,WeatherDisplay:10.37,2013-11-16 03:45:00,
2013-11-15 22:46:00,61.9,59.8,30.15,North,0,2.3,2.3,93,0.00,CLR,,0.00,WeatherDisplay:10.37,2013-11-16 03:46:00,
2013-11-15 22:47:00,61.9,59.8,30.15,North,0,1.2,2.0,93,0.00,CLR,,0.00,WeatherDisplay:10.37,2013-11-16 03:47:00,
2013-11-15 22:48:00,61.9,59.8,30.15,NNE,22,1.2,1.2,93,0.00,CLR,,0.00,WeatherDisplay:10.37,2013-11-16 03:48:00,
2013-11-15 22:50:00,61.9,59.8,30.15,North,0,2.4,2.4,93,0.00,CLR,,0.00,WeatherDisplay:10.37,2013-11-16 03:50:00,
2013-11-15 22:51:00,61.9,59.8,30.15,North,0,2.4,2.4,93,0.00,CLR,,0.00,WeatherDisplay:10.37,2013-11-16 03:51:00,
2013-11-15 22:53:00,61.9,59.8,30.15,North,0,1.4,2.0,93,0.00,CLR,,0.00,WeatherDisplay:10.37,2013-11-16 03:53:00,
2013-11-15 22:55:00,61.9,59.8,30.15,North,0,1.6,0.0,93,0.00,CLR,,0.00,WeatherDisplay:10.37,2013-11-16 03:55:00,
2013-11-15 22:56:00,61.9,59.8,30.15,North,0,1.6,0.0,93,0.00,CLR,,0.00,WeatherDisplay:10.37,2013-11-16 03:56:00,
2013-11-15 22:58:00,61.9,59.8,30.15,NNE,22,1.2,1.2,93,0.00,CLR,,0.00,WeatherDisplay:10.37,2013-11-16 03:58:00,
2013-11-15 23:01:00,61.9,59.8,30.12,NNE,22,0.0,0.0,93,0.00,CLR,,0.00,WeatherDisplay:10.37,2013-11-16 04:01:00,
2013-11-15 23:03:00,61.7,59.7,30.12,ENE,68,0.9,0.0,93,0.00,CLR,,0.00,WeatherDisplay:10.37,2013-11-16 04:03:00,
2013-11-15 23:04:00,61.7,59.7,30.12,North,0,1.2,0.0,93,0.00,CLR,,0.00,WeatherDisplay:10.37,2013-11-16 04:04:00,
2013-11-15 23:06:00,61.7,59.7,30.12,NE,45,2.2,2.2,93,0.00,CLR,,0.00,WeatherDisplay:10.37,2013-11-16 04:06:00,
2013-11-15 23:08:00,61.7,59.7,30.12,East,90,1.2,1.6,93,0.00,CLR,,0.00,WeatherDisplay:10.37,2013-11-16 04:08:00,
2013-11-15 23:09:00,61.7,59.7,30.12,East,90,1.2,0.0,93,0.00,CLR,,0.00,WeatherDisplay:10.37,2013-11-16 04:09:00,
2013-11-15 23:11:00,61.7,59.7,30.12,East,90,0.0,0.0,93,0.00,CLR,,0.00,WeatherDisplay:10.37,2013-11-16 04:11:00,
2013-11-15 23:12:00,61.7,59.7,30.12,North,0,2.2,0.0,93,0.00,CLR,,0.00,WeatherDisplay:10.37,2013-11-16 04:12:00,
2013-11-15 23:14:00,61.7,59.7,30.12,East,90,0.0,0.0,93,0.00,CLR,,0.00,WeatherDisplay:10.37,2013-11-16 04:14:00,
2013-11-15 23:16:00,61.7,59.7,30.12,NNW,338,1.2,1.2,93,0.00,CLR,,0.00,WeatherDisplay:10.37,2013-11-16 04:16:00,
2013-11-15 23:17:00,61.7,59.7,30.12,North,0,3.3,3.3,93,0.00,CLR,,0.00,WeatherDisplay:10.37,2013-11-16 04:17:00,
2013-11-15 23:18:00,61.7,59.7,30.12,North,0,1.6,1.6,93,0.00,CLR,,0.00,WeatherDisplay:10.37,2013-11-16 04:18:00,
2013-11-15 23:19:00,61.7,59.7,30.12,NNW,338,1.6,1.6,93,0.00,CLR,,0.00,WeatherDisplay:10.37,2013-11-16 04:19:00,
2013-11-15 23:20:00,61.7,59.7,30.12,NNE,22,2.4,2.4,93,0.00,CLR,,0.00,WeatherDisplay:10.37,2013-11-16 04:20:00,
2013-11-15 23:21:00,61.7,59.7,30.12,NW,315,3.1,3.1,93,0.00,CLR,,0.00,WeatherDisplay:10.37,2013-11-16 04:21:00,
2013-11-15 23:22:00,61.7,59.7,30.12,North,0,3.5,3.5,93,0.00,CLR,,0.00,WeatherDisplay:10.37,2013-11-16 04:22:00,
2013-11-15 23:23:00,61.7,59.7,30.12,North,0,1.6,0.0,93,0.00,CLR,,0.00,WeatherDisplay:10.37,2013-11-16 04:23:00,
2013-11-15 23:25:00,61.7,59.7,30.12,NW,315,2.9,2.9,93,0.00,CLR,,0.00,WeatherDisplay:10.37,2013-11-16 04:25:00,
2013-11-15 23:27:00,61.7,59.7,30.12,NNW,338,2.0,2.0,93,0.00,CLR,,0.00,WeatherDisplay:10.37,2013-11-16 04:27:00,
2013-11-15 23:28:00,61.7,59.7,30.12,NW,315,1.4,1.4,93,0.00,CLR,,0.00,WeatherDisplay:10.37,2013-11-16 04:28:00,
2013-11-15 23:29:00,61.7,59.7,30.12,North,0,0.0,1.4,93,0.00,CLR,,0.00,WeatherDisplay:10.37,2013-11-16 04:29:00,
2013-11-15 23:30:00,61.5,59.5,30.12,North,0,0.0,0.0,93,0.00,CLR,,0.00,WeatherDisplay:10.37,2013-11-16 04:30:00,
2013-11-15 23:32:00,61.5,59.5,30.12,NNW,338,0.9,1.2,93,0.00,CLR,,0.00,WeatherDisplay:10.37,2013-11-16 04:32:00,
2013-11-15 23:33:00,61.5,59.5,30.12,NNW,338,2.0,2.0,93,0.00,CLR,,0.00,WeatherDisplay:10.37,2013-11-16 04:33:00,
2013-11-15 23:34:00,61.5,59.5,30.12,NNE,22,1.2,1.2,93,0.00,CLR,,0.00,WeatherDisplay:10.37,2013-11-16 04:34:00,
2013-11-15 23:35:00,61.5,59.5,30.12,NNW,338,1.4,1.4,93,0.00,CLR,,0.00,WeatherDisplay:10.37,2013-11-16 04:35:00,
2013-11-15 23:37:00,61.5,59.5,30.12,NNW,338,0.0,0.0,93,0.00,CLR,,0.00,WeatherDisplay:10.37,2013-11-16 04:37:00,
2013-11-15 23:38:00,61.5,59.5,30.12,NNW,338,0.0,0.0,93,0.00,CLR,,0.00,WeatherDisplay:10.37,2013-11-16 04:38:00,
2013-11-15 23:39:00,61.5,59.5,30.12,NNE,22,0.0,0.0,93,0.00,CLR,,0.00,WeatherDisplay:10.37,2013-11-16 04:39:00,
2013-11-15 23:40:00,61.5,59.5,30.12,NNW,338,0.0,0.9,93,0.00,CLR,,0.00,WeatherDisplay:10.37,2013-11-16 04:40:00,
2013-11-15 23:41:00,61.5,59.5,30.12,North,0,1.2,0.0,93,0.00,CLR,,0.00,WeatherDisplay:10.37,2013-11-16 04:41:00,
2013-11-15 23:42:00,61.3,59.3,30.12,NNW,338,1.2,1.2,93,0.00,CLR,,0.00,WeatherDisplay:10.37,2013-11-16 04:42:00,
2013-11-15 23:43:00,61.3,59.3,30.12,North,0,1.4,1.4,93,0.00,CLR,,0.00,WeatherDisplay:10.37,2013-11-16 04:43:00,
2013-11-15 23:44:00,61.3,59.3,30.12,North,0,0.0,0.9,93,0.00,CLR,,0.00,WeatherDisplay:10.37,2013-11-16 04:44:00,
2013-11-15 23:45:00,61.3,59.3,30.12,NW,315,0.0,0.0,93,0.00,CLR,,0.00,WeatherDisplay:10.37,2013-11-16 04:45:00,
2013-11-15 23:46:00,61.3,59.3,30.12,NW,315,0.0,0.9,93,0.00,CLR,,0.00,WeatherDisplay:10.37,2013-11-16 04:46:00,
2013-11-15 23:48:00,61.3,59.3,30.12,NW,315,0.0,0.0,93,0.00,CLR,,0.00,WeatherDisplay:10.37,2013-11-16 04:48:00,
2013-11-15 23:50:00,61.3,59.3,30.12,NW,315,0.0,1.0,93,0.00,CLR,CLR,0.00,WeatherDisplay:10.37,2013-11-16 04:50:00,
2013-11-15 23:52:00,61.2,59.1,30.12,North,0,0.0,0.0,93,0.00,CLR,,0.00,WeatherDisplay:10.37,2013-11-16 04:52:00,
2013-11-15 23:53:00,61.2,59.1,30.12,North,0,0.0,0.0,93,0.00,CLR,,0.00,WeatherDisplay:10.37,2013-11-16 04:53:00,
2013-11-15 23:54:00,61.2,59.1,30.12,North,0,0.0,0.0,93,0.00,CLR,,0.00,WeatherDisplay:10.37,2013-11-16 04:54:00,
2013-11-15 23:55:00,61.2,59.1,30.12,NNW,338,0.0,0.0,93,0.00,CLR,,0.00,WeatherDisplay:10.37,2013-11-16 04:55:00,
2013-11-15 23:57:00,61.2,59.1,30.12,North,0,1.2,1.2,93,0.00,CLR,,0.00,WeatherDisplay:10.37,2013-11-16 04:57:00,
2013-11-15 23:58:00,61.2,59.1,30.12,North,0,0.9,0.0,93,0.00,CLR,,0.00,WeatherDisplay:10.37,2013-11-16 04:58:00,
2013-11-15 23:59:00,61.2,59.1,30.12,NNW,338,0.0,0.0,93,0.00,CLR,,0.00,WeatherDisplay:10.37,2013-11-16 04:59:00,